FZ1830 / A6-FMH 7700 Squawk Report (22nd of January, 2023)

Aircraft B38M Reg No. A6-FMH Age 4 years old
Model 737 Jet engines 2 First flight 17-12-18
Registered 31-12-18 Rollout N/A Delivered 31-12-18
Construction No. 60979 Line No. 7296 Series 8MAX
ADSHEX 896517 Airline name FlyDubai Owner N/A
Airfield based Dubai International~Dubai~A6 First tracked N/A
Time Lat Lon Altitude Heading Speed Vertical Rate
2023-01-22 21:16:46 GMT 50.073284 19.771105 0 75 0 0
2023-01-22 21:16:25 GMT 50.073292 19.771109 0 75 0 0
2023-01-22 21:16:15 GMT 50.073280 19.771109 0 75 0 0
2023-01-22 21:15:31 GMT 50.073284 19.771105 0 75 0 0
2023-01-22 21:15:12 GMT 50.073280 19.771109 0 75 0 0
2023-01-22 21:14:22 GMT 50.073284 19.771105 0 75 0 0
2023-01-22 21:14:02 GMT 50.073280 19.771109 0 75 0 0
2023-01-22 21:13:32 GMT 50.073284 19.771105 0 75 0 0
2023-01-22 21:13:03 GMT 50.073280 19.771109 0 75 0 0
2023-01-22 21:12:52 GMT 50.073284 19.771105 0 75 0 0
2023-01-22 21:12:27 GMT 50.073280 19.771109 0 75 0 0
2023-01-22 21:12:13 GMT 50.073292 19.771109 0 75 0 0
2023-01-22 21:11:47 GMT 50.073280 19.771109 0 75 0 0
2023-01-22 21:11:42 GMT 50.073284 19.771105 0 75 0 0
2023-01-22 21:10:52 GMT 50.073277 19.771105 0 75 0 0
2023-01-22 21:10:47 GMT 50.073280 19.771109 0 75 0 0
2023-01-22 21:10:31 GMT 50.073277 19.771105 0 75 0 0
2023-01-22 21:10:08 GMT 50.073280 19.771109 0 75 0 0
2023-01-22 21:10:00 GMT 50.073261 19.771011 0 75 5 0
2023-01-22 21:09:50 GMT 50.073212 19.770584 0 75 8 0
2023-01-22 21:09:40 GMT 50.073124 19.770027 0 78 7 0
2023-01-22 21:09:28 GMT 50.073101 19.769434 0 112 11 0
2023-01-22 21:09:19 GMT 50.073692 19.768867 0 165 14 0
2023-01-22 21:09:07 GMT 50.074146 19.768690 0 165 17 0
2023-01-22 21:08:59 GMT 50.074833 19.768469 0 177 15 0
2023-01-22 21:08:48 GMT 50.075409 19.768831 0 241 14 0
2023-01-22 21:08:37 GMT 50.075661 19.770115 0 258 24 0
2023-01-22 21:08:28 GMT 50.075878 19.771723 0 258 26 0
2023-01-22 21:08:17 GMT 50.076187 19.773909 0 258 34 0
2023-01-22 21:08:08 GMT 50.076546 19.776411 0 258 40 0
2023-01-22 21:07:56 GMT 50.077045 19.780029 0 258 57 0
2023-01-22 21:07:47 GMT 50.077663 19.784370 300 258 84 0
2023-01-22 21:07:36 GMT 50.078754 19.792316 300 258 148 -768
2023-01-22 21:07:32 GMT 50.079269 19.796026 300 258 147 -512
2023-01-22 21:07:27 GMT 50.080032 19.801628 400 259 150 -896
2023-01-22 21:07:24 GMT 50.080479 19.804638 425 259 151 -576
2023-01-22 21:07:18 GMT 50.081318 19.811022 550 258 155 -960
2023-01-22 21:07:14 GMT 50.081966 19.815699 575 258 155 -960
2023-01-22 21:07:07 GMT 50.082947 19.822529 800 258 155 -1024
2023-01-22 21:07:03 GMT 50.083557 19.827070 750 258 155 -960
2023-01-22 21:06:57 GMT 50.084576 19.834183 850 258 155 -896
2023-01-22 21:06:54 GMT 50.085114 19.838127 900 258 156 -896
2023-01-22 21:06:50 GMT 50.085663 19.841959 1,000 258 155 -832
2023-01-22 21:06:47 GMT 50.086029 19.844706 975 258 155 -832
2023-01-22 21:06:43 GMT 50.086716 19.849403 1,050 259 156 -960
2023-01-22 21:06:40 GMT 50.087311 19.853886 1,100 258 157 -896
2023-01-22 21:06:37 GMT 50.087540 19.855547 1,125 258 157 -896
2023-01-22 21:06:33 GMT 50.088226 19.860535 1,200 259 157 -896
2023-01-22 21:06:30 GMT 50.088905 19.865730 1,250 258 157 -896
2023-01-22 21:06:27 GMT 50.089050 19.866751 1,275 258 157 -896
2023-01-22 21:06:22 GMT 50.089790 19.871965 1,350 258 157 -896
2023-01-22 21:06:19 GMT 50.090424 19.876364 1,400 258 157 -832
2023-01-22 21:06:16 GMT 50.090790 19.879110 1,450 258 158 -896
2023-01-22 21:06:13 GMT 50.091419 19.883621 1,500 259 158 -896
2023-01-22 21:06:09 GMT 50.091930 19.887482 1,575 259 160 -896
2023-01-22 21:06:06 GMT 50.092346 19.890892 1,600 259 160 -896
2023-01-22 21:06:02 GMT 50.092907 19.895054 1,650 259 160 -896
2023-01-22 21:05:59 GMT 50.093468 19.899136 1,700 259 160 -896
2023-01-22 21:05:54 GMT 50.094212 19.904406 1,775 258 160 -960
2023-01-22 21:05:51 GMT 50.094727 19.907804 1,825 258 162 -832
2023-01-22 21:05:48 GMT 50.095097 19.910566 1,825 258 162 -832
2023-01-22 21:05:44 GMT 50.096027 19.917248 1,950 258 165 -896
2023-01-22 21:05:39 GMT 50.096741 19.922115 2,000 258 166 -960
2023-01-22 21:05:35 GMT 50.097244 19.925730 2,050 259 168 -896
2023-01-22 21:05:30 GMT 50.098167 19.932613 2,125 259 170 -832
2023-01-22 21:05:26 GMT 50.098633 19.936176 2,575 258 178 -128
2023-01-22 21:05:22 GMT 50.099426 19.941967 2,275 259 175 -1152
2023-01-22 21:05:19 GMT 50.099899 19.945679 2,325 259 175 -1152
2023-01-22 21:05:16 GMT 50.100449 19.949837 2,375 258 175 -1152
2023-01-22 21:05:13 GMT 50.100861 19.952618 2,425 258 176 -1024
2023-01-22 21:05:09 GMT 50.101566 19.957556 2,525 257 177 -704
2023-01-22 21:05:06 GMT 50.102142 19.961290 2,525 257 177 -704
2023-01-22 21:05:00 GMT 50.103149 19.968245 2,575 259 178 128
2023-01-22 21:04:56 GMT 50.103882 19.973650 2,550 260 179 64
2023-01-22 21:04:50 GMT 50.104752 19.980879 2,550 260 180 -64
2023-01-22 21:04:47 GMT 50.105301 19.985069 2,550 259 181 0
2023-01-22 21:04:43 GMT 50.106400 19.993816 2,575 259 183 -128
2023-01-22 21:04:40 GMT 50.106400 19.993816 2,575 259 183 -384
2023-01-22 21:04:37 GMT 50.107014 19.998459 2,575 258 185 -512
2023-01-22 21:04:31 GMT 50.108185 20.006971 2,650 258 186 -512
2023-01-22 21:04:28 GMT 50.109055 20.013187 2,675 258 187 -512
2023-01-22 21:04:25 GMT 50.109055 20.013187 2,675 258 187 -512
2023-01-22 21:04:20 GMT 50.110107 20.020704 2,725 258 189 -512
2023-01-22 21:04:16 GMT 50.110737 20.025255 2,750 258 190 -512
2023-01-22 21:04:10 GMT 50.111946 20.033792 2,800 258 192 -448
2023-01-22 21:04:07 GMT 50.112625 20.038700 2,825 258 193 -320
2023-01-22 21:04:00 GMT 50.113998 20.048170 2,850 258 193 -320
2023-01-22 21:03:56 GMT 50.114685 20.052940 2,875 258 194 -192
2023-01-22 21:03:49 GMT 50.116104 20.062841 2,900 257 198 -384
2023-01-22 21:03:46 GMT 50.116653 20.066383 2,900 257 198 -512
2023-01-22 21:03:41 GMT 50.117580 20.072689 2,950 258 198 -512
2023-01-22 21:03:38 GMT 50.118187 20.076698 2,975 258 199 -512
2023-01-22 21:03:35 GMT 50.118805 20.081202 3,000 259 199 -512
2023-01-22 21:03:32 GMT 50.119583 20.087091 3,050 259 198 -512
2023-01-22 21:03:29 GMT 50.119949 20.089802 3,100 261 198 -512
2023-01-22 21:03:26 GMT 50.120544 20.095007 3,075 260 198 -512
2023-01-22 21:03:22 GMT 50.121140 20.099920 3,125 264 197 -512
2023-01-22 21:03:19 GMT 50.121677 20.105499 3,150 263 197 -448
2023-01-22 21:03:16 GMT 50.122009 20.109463 3,250 263 196 -512
2023-01-22 21:03:11 GMT 50.122471 20.115150 3,225 263 196 -512
2023-01-22 21:03:08 GMT 50.123119 20.123537 3,250 263 196 -512
2023-01-22 21:03:05 GMT 50.123119 20.123537 3,250 263 196 -512
2023-01-22 21:03:01 GMT 50.123631 20.129551 3,300 264 196 -512
2023-01-22 21:02:58 GMT 50.124069 20.135843 3,350 265 195 -512
2023-01-22 21:02:55 GMT 50.124191 20.137939 3,350 267 196 -512
2023-01-22 21:02:51 GMT 50.124344 20.143288 3,375 270 197 -512
2023-01-22 21:02:47 GMT 50.124191 20.148703 3,425 282 197 -448
2023-01-22 21:02:44 GMT 50.123840 20.152901 3,425 280 197 -448
2023-01-22 21:02:38 GMT 50.122192 20.162586 3,475 288 198 -448
2023-01-22 21:02:34 GMT 50.121212 20.167187 3,500 288 198 -512
2023-01-22 21:02:29 GMT 50.119629 20.174759 3,550 289 198 -576
2023-01-22 21:02:25 GMT 50.118256 20.180944 3,600 290 197 -704
2023-01-22 21:02:22 GMT 50.117767 20.183147 3,650 293 196 -768
2023-01-22 21:02:18 GMT 50.116516 20.188391 3,675 293 196 -768
2023-01-22 21:02:15 GMT 50.115372 20.192726 3,725 294 196 -768
2023-01-22 21:02:12 GMT 50.114323 20.196657 3,750 294 196 -704
2023-01-22 21:02:09 GMT 50.113220 20.200388 3,775 295 196 -768
2023-01-22 21:02:06 GMT 50.111023 20.206604 3,850 304 196 -768
2023-01-22 21:02:03 GMT 50.110783 20.207197 3,850 304 196 -768
2023-01-22 21:01:58 GMT 50.107819 20.212748 4,000 322 198 -768
2023-01-22 21:01:54 GMT 50.104477 20.217012 3,975 329 198 -832
2023-01-22 21:01:49 GMT 50.100262 20.220560 4,050 340 200 -832
2023-01-22 21:01:45 GMT 50.096027 20.222565 4,100 349 201 -768
2023-01-22 21:01:41 GMT 50.093418 20.223158 4,175 0 201 -768
2023-01-22 21:01:38 GMT 50.091019 20.223301 4,175 1 201 -768
2023-01-22 21:01:34 GMT 50.086578 20.222651 4,250 12 200 -832
2023-01-22 21:01:31 GMT 50.084667 20.221970 4,300 22 198 -832
2023-01-22 21:01:28 GMT 50.081726 20.220337 4,325 26 198 -896
2023-01-22 21:01:23 GMT 50.077606 20.216652 4,400 36 196 -896
2023-01-22 21:01:17 GMT 50.073578 20.210869 4,475 50 195 -768
2023-01-22 21:01:13 GMT 50.071445 20.206306 4,525 61 193 -512
2023-01-22 21:01:10 GMT 50.070465 20.203350 4,550 70 192 -256
2023-01-22 21:01:06 GMT 50.069027 20.197102 4,550 77 192 0
2023-01-22 21:01:02 GMT 50.068516 20.192871 4,550 84 191 0
2023-01-22 21:00:58 GMT 50.068405 20.186800 4,550 96 192 0
2023-01-22 21:00:55 GMT 50.068748 20.182701 4,550 108 193 0
2023-01-22 21:00:52 GMT 50.069351 20.178841 4,550 108 193 0
2023-01-22 21:00:48 GMT 50.070843 20.173347 4,550 123 194 -64
2023-01-22 21:00:45 GMT 50.072250 20.169743 4,575 128 194 -64
2023-01-22 21:00:41 GMT 50.074986 20.164961 4,575 140 194 -128
2023-01-22 21:00:38 GMT 50.077057 20.162226 4,575 144 194 -64
2023-01-22 21:00:32 GMT 50.085892 20.155865 4,575 165 195 0
2023-01-22 21:00:26 GMT 50.085892 20.155865 4,575 163 194 0
2023-01-22 21:00:22 GMT 50.091045 20.153751 4,575 165 195 0
2023-01-22 21:00:17 GMT 50.094257 20.152489 4,575 165 195 0
2023-01-22 21:00:14 GMT 50.096447 20.151672 4,575 165 195 0
2023-01-22 21:00:11 GMT 50.099846 20.150263 4,575 165 195 0
2023-01-22 21:00:07 GMT 50.103378 20.148926 4,575 165 195 0
2023-01-22 21:00:04 GMT 50.105209 20.148203 4,575 165 195 -64
2023-01-22 21:00:00 GMT 50.111847 20.145601 4,575 165 195 -64
2023-01-22 20:59:57 GMT 50.111847 20.145601 4,600 165 195 -64
2023-01-22 20:59:54 GMT 50.114182 20.144661 4,600 165 195 -128
2023-01-22 20:59:51 GMT 50.118233 20.143061 4,600 165 195 -64
2023-01-22 20:59:47 GMT 50.122932 20.141207 4,575 165 195 128
2023-01-22 20:59:44 GMT 50.122932 20.141207 4,575 165 195 128
2023-01-22 20:59:41 GMT 50.129105 20.138735 4,575 165 195 128
2023-01-22 20:59:37 GMT 50.129105 20.138735 4,575 165 195 0
2023-01-22 20:59:34 GMT 50.132172 20.137506 4,575 165 195 0
2023-01-22 20:59:31 GMT 50.134277 20.136639 4,575 165 195 64
2023-01-22 20:59:27 GMT 50.138531 20.134895 4,575 165 194 64
2023-01-22 20:59:23 GMT 50.140961 20.133965 4,575 165 194 64
2023-01-22 20:59:20 GMT 50.145218 20.132229 4,575 165 193 64
2023-01-22 20:59:17 GMT 50.146866 20.131578 4,575 165 193 0
2023-01-22 20:59:14 GMT 50.149052 20.130739 4,575 165 193 -64
2023-01-22 20:59:11 GMT 50.152222 20.129482 4,575 165 193 -64
2023-01-22 20:59:06 GMT 50.155708 20.128067 4,575 165 194 0
2023-01-22 20:59:02 GMT 50.159180 20.126736 4,575 165 193 0
2023-01-22 20:58:59 GMT 50.163528 20.125023 4,575 166 193 0
2023-01-22 20:58:56 GMT 50.164829 20.124578 4,575 168 192 0
2023-01-22 20:58:52 GMT 50.170605 20.123018 4,575 173 193 64
2023-01-22 20:58:49 GMT 50.170605 20.123018 4,575 177 193 64
2023-01-22 20:58:45 GMT 50.173721 20.122723 4,575 179 193 64
2023-01-22 20:58:42 GMT 50.176655 20.122648 4,575 179 193 0
2023-01-22 20:58:39 GMT 50.179688 20.122688 4,550 179 193 0
2023-01-22 20:58:36 GMT 50.182846 20.122616 4,550 179 194 0
2023-01-22 20:58:32 GMT 50.187561 20.122616 4,575 179 194 0
2023-01-22 20:58:29 GMT 50.189365 20.122574 4,575 179 195 0
2023-01-22 20:58:25 GMT 50.191971 20.122574 4,575 179 195 0
2023-01-22 20:58:19 GMT 50.198025 20.122425 4,575 179 196 0
2023-01-22 20:58:15 GMT 50.201187 20.122425 4,575 179 197 -64
2023-01-22 20:58:12 GMT 50.204727 20.122351 4,575 179 198 -64
2023-01-22 20:58:09 GMT 50.207195 20.122276 4,575 179 200 -64
2023-01-22 20:58:06 GMT 50.209625 20.122255 4,575 179 201 -192
2023-01-22 20:58:03 GMT 50.212509 20.122183 4,575 179 205 -192
2023-01-22 20:58:00 GMT 50.216270 20.122128 4,600 179 206 -192
2023-01-22 20:57:57 GMT 50.219559 20.122038 4,600 179 210 -64
2023-01-22 20:57:53 GMT 50.222168 20.121965 4,600 179 210 -64
2023-01-22 20:57:50 GMT 50.225674 20.121904 4,600 179 214 128
2023-01-22 20:57:47 GMT 50.227398 20.121832 4,600 178 215 192
2023-01-22 20:57:44 GMT 50.230469 20.121758 4,600 178 215 192
2023-01-22 20:57:41 GMT 50.233959 20.121683 4,575 178 217 192
2023-01-22 20:57:38 GMT 50.237873 20.121534 4,575 178 218 0
2023-01-22 20:57:35 GMT 50.240990 20.121460 4,575 179 218 0
2023-01-22 20:57:30 GMT 50.244232 20.121460 4,575 181 218 64
2023-01-22 20:57:27 GMT 50.248253 20.121386 4,575 181 218 64
2023-01-22 20:57:24 GMT 50.250275 20.121460 4,575 186 216 -64
2023-01-22 20:57:21 GMT 50.253746 20.121683 4,575 191 216 64
2023-01-22 20:57:18 GMT 50.260162 20.123556 4,575 195 217 64
2023-01-22 20:57:15 GMT 50.260162 20.123556 4,575 200 217 64
2023-01-22 20:57:12 GMT 50.263733 20.125797 4,550 206 219 64
2023-01-22 20:57:09 GMT 50.266315 20.127993 4,550 213 220 0
2023-01-22 20:57:06 GMT 50.267624 20.129482 4,550 218 222 0
2023-01-22 20:57:03 GMT 50.269714 20.132074 4,550 224 224 0
2023-01-22 20:57:00 GMT 50.272552 20.136602 4,550 235 227 0
2023-01-22 20:56:57 GMT 50.274582 20.140831 4,550 239 228 0
2023-01-22 20:56:54 GMT 50.276043 20.144621 4,550 245 230 64
2023-01-22 20:56:49 GMT 50.277908 20.151747 4,575 254 234 0
2023-01-22 20:56:46 GMT 50.278839 20.157166 4,550 262 236 0
2023-01-22 20:56:43 GMT 50.279209 20.161175 4,575 266 238 -64
2023-01-22 20:56:38 GMT 50.279251 20.171404 4,575 278 244 -64
2023-01-22 20:56:34 GMT 50.278427 20.178921 4,575 288 249 -128
2023-01-22 20:56:27 GMT 50.276047 20.189114 4,575 297 255 -64
2023-01-22 20:56:23 GMT 50.273483 20.196213 4,575 308 263 192
2023-01-22 20:56:20 GMT 50.271011 20.201401 4,550 314 269 0
2023-01-22 20:56:17 GMT 50.269108 20.204674 4,550 316 270 -256
2023-01-22 20:56:13 GMT 50.263412 20.212242 4,600 326 277 -704
2023-01-22 20:56:08 GMT 50.260071 20.215639 4,650 329 279 -1152
2023-01-22 20:56:05 GMT 50.255840 20.219521 4,750 330 280 -1408
2023-01-22 20:56:01 GMT 50.251556 20.223373 4,775 330 281 -1408
2023-01-22 20:55:57 GMT 50.247509 20.227093 4,925 330 283 -1664
2023-01-22 20:55:54 GMT 50.243504 20.230656 5,050 330 285 -1728
2023-01-22 20:55:51 GMT 50.240711 20.233253 5,150 330 287 -1088
2023-01-22 20:55:48 GMT 50.237171 20.236444 5,200 330 287 -1152
2023-01-22 20:55:45 GMT 50.230408 20.242670 5,250 330 288 -1088
2023-01-22 20:55:42 GMT 50.226002 20.246689 5,450 330 290 -1088
2023-01-22 20:55:39 GMT 50.223160 20.249212 5,350 330 293 -1088
2023-01-22 20:55:36 GMT 50.223160 20.249212 5,425 330 295 -1088
2023-01-22 20:55:33 GMT 50.219528 20.252554 5,450 330 296 -1088
2023-01-22 20:55:27 GMT 50.213154 20.258417 5,550 330 303 -1216
2023-01-22 20:55:24 GMT 50.209290 20.261908 5,575 330 300 -1152
2023-01-22 20:55:21 GMT 50.203053 20.267696 5,725 330 304 -1216
2023-01-22 20:55:16 GMT 50.199417 20.271076 5,825 330 308 -1152
2023-01-22 20:55:13 GMT 50.195511 20.274750 5,875 330 310 -1216
2023-01-22 20:55:10 GMT 50.191544 20.278378 5,875 330 310 -1216
2023-01-22 20:55:06 GMT 50.186852 20.282766 6,000 330 314 -1344
2023-01-22 20:55:02 GMT 50.181335 20.287916 6,100 330 318 -1216
2023-01-22 20:54:57 GMT 50.175770 20.293083 6,225 330 323 -1216
2023-01-22 20:54:54 GMT 50.171677 20.296881 6,275 330 325 -1216
2023-01-22 20:54:51 GMT 50.162842 20.305046 6,350 330 328 -1280
2023-01-22 20:54:48 GMT 50.158264 20.309313 6,425 330 330 -1280
2023-01-22 20:54:44 GMT 50.158264 20.309313 6,475 330 334 -1280
2023-01-22 20:54:41 GMT 50.154968 20.312420 6,525 330 335 -1280
2023-01-22 20:54:38 GMT 50.150398 20.316616 6,575 330 338 -1216
2023-01-22 20:54:34 GMT 50.146255 20.320477 6,675 330 342 -1280
2023-01-22 20:54:31 GMT 50.138996 20.327082 6,750 330 346 -1344
2023-01-22 20:54:25 GMT 50.128967 20.336199 6,900 330 352 -1408
2023-01-22 20:54:22 GMT 50.128967 20.336199 6,950 330 354 -1472
2023-01-22 20:54:19 GMT 50.122421 20.342077 7,050 330 357 -1536
2023-01-22 20:54:15 GMT 50.118713 20.345451 7,100 330 359 -1600
2023-01-22 20:54:11 GMT 50.109062 20.354252 7,250 330 363 -1728
2023-01-22 20:54:08 GMT 50.109062 20.354252 7,350 330 367 -2048
2023-01-22 20:54:05 GMT 50.103382 20.359447 7,425 330 367 -2176
2023-01-22 20:54:01 GMT 50.098820 20.363605 7,600 330 369 -2560
2023-01-22 20:53:58 GMT 50.091431 20.370241 7,775 330 370 -2816
2023-01-22 20:53:55 GMT 50.089920 20.371544 7,850 330 370 -2816
2023-01-22 20:53:52 GMT 50.080853 20.379713 7,975 330 371 -2752
2023-01-22 20:53:46 GMT 50.070934 20.388548 8,350 331 376 -2688
2023-01-22 20:53:43 GMT 50.070934 20.388548 8,425 331 376 -2688
2023-01-22 20:53:40 GMT 50.066711 20.392286 8,525 331 380 -2368
2023-01-22 20:53:37 GMT 50.057877 20.400093 8,700 331 380 -2432
2023-01-22 20:53:34 GMT 50.057877 20.400093 8,825 331 381 -2240
2023-01-22 20:53:30 GMT 50.052639 20.404655 8,875 331 383 -2240
2023-01-22 20:53:27 GMT 50.045837 20.410574 9,075 331 385 -2560
2023-01-22 20:53:22 GMT 50.039604 20.416012 9,300 331 388 -2880
2023-01-22 20:53:19 GMT 50.034576 20.420330 10,775 331 395 -3136
2023-01-22 20:53:16 GMT 50.029083 20.425175 9,600 331 390 -3072
2023-01-22 20:53:13 GMT 50.025192 20.428572 9,700 331 390 -3072
2023-01-22 20:53:10 GMT 50.021542 20.431749 9,825 331 391 -3072
2023-01-22 20:53:06 GMT 50.013840 20.438545 10,125 331 393 -3072
2023-01-22 20:53:03 GMT 50.009857 20.442068 10,125 331 393 -3072
2023-01-22 20:53:00 GMT 50.004971 20.446373 10,650 331 396 -3136
2023-01-22 20:52:56 GMT 49.996857 20.453506 10,625 331 396 -3136
2023-01-22 20:52:53 GMT 49.993847 20.456173 10,800 331 398 -3008
2023-01-22 20:52:50 GMT 49.989990 20.459505 10,800 331 398 -3008
2023-01-22 20:52:47 GMT 49.985046 20.463915 11,000 331 399 -2880
2023-01-22 20:52:43 GMT 49.976715 20.471315 11,325 331 402 -2880
2023-01-22 20:52:40 GMT 49.971863 20.475624 11,400 331 402 -2816
2023-01-22 20:52:35 GMT 49.963959 20.482674 11,600 331 406 -2624
2023-01-22 20:52:32 GMT 49.961025 20.485271 11,675 331 407 -2688
2023-01-22 20:52:29 GMT 49.955811 20.489946 12,125 331 409 -3008
2023-01-22 20:52:26 GMT 49.951035 20.494127 12,000 331 408 -3136
2023-01-22 20:52:23 GMT 49.944809 20.499693 12,325 331 413 -2496
2023-01-22 20:52:20 GMT 49.940506 20.503452 12,350 331 412 -2496
2023-01-22 20:52:17 GMT 49.934677 20.508579 12,425 331 415 -2624
2023-01-22 20:52:13 GMT 49.923645 20.518230 12,725 331 416 -3328
2023-01-22 20:52:10 GMT 49.923645 20.518230 12,775 331 417 -3392
2023-01-22 20:52:06 GMT 49.917252 20.523762 12,975 331 418 -3328
2023-01-22 20:52:03 GMT 49.909817 20.530182 13,200 331 419 -2752
2023-01-22 20:52:00 GMT 49.906933 20.532631 13,375 332 422 -2944
2023-01-22 20:51:57 GMT 49.900085 20.538507 13,475 332 422 -3456
2023-01-22 20:51:53 GMT 49.893082 20.544506 13,850 332 421 -4096
2023-01-22 20:51:50 GMT 49.883331 20.552748 14,000 332 421 -3904
2023-01-22 20:51:46 GMT 49.883331 20.552748 14,950 332 420 -3712
2023-01-22 20:51:42 GMT 49.869690 20.564327 14,475 332 422 -3392
2023-01-22 20:51:39 GMT 49.869690 20.564327 14,600 332 422 -3456
2023-01-22 20:51:36 GMT 49.865406 20.567965 14,950 332 423 -3392
2023-01-22 20:51:31 GMT 49.856144 20.575834 15,100 332 424 -3200
2023-01-22 20:51:28 GMT 49.852371 20.579025 15,475 332 426 -3392
2023-01-22 20:51:25 GMT 49.848042 20.582663 15,800 332 426 -3392
2023-01-22 20:51:21 GMT 49.840317 20.589270 15,650 332 426 -3328
2023-01-22 20:51:18 GMT 49.835129 20.593655 15,775 332 426 -3328
2023-01-22 20:51:15 GMT 49.829727 20.598137 15,900 332 427 -3264
2023-01-22 20:51:11 GMT 49.823139 20.603745 16,225 332 429 -3264
2023-01-22 20:51:08 GMT 49.815994 20.609774 16,325 332 430 -3264
2023-01-22 20:51:05 GMT 49.810940 20.614063 16,500 332 430 -3264
2023-01-22 20:51:01 GMT 49.804657 20.619408 16,775 332 432 -3200
2023-01-22 20:50:58 GMT 49.798512 20.624603 16,875 332 433 -3136
2023-01-22 20:50:54 GMT 49.793930 20.628492 17,000 332 435 -3136
2023-01-22 20:50:51 GMT 49.786919 20.634478 17,200 332 436 -3136
2023-01-22 20:50:47 GMT 49.775421 20.644276 17,575 332 438 -3392
2023-01-22 20:50:44 GMT 49.775421 20.644276 17,575 332 438 -3392
2023-01-22 20:50:40 GMT 49.768661 20.650032 17,875 332 439 -3392
2023-01-22 20:50:37 GMT 49.761200 20.656321 18,025 332 439 -3264
2023-01-22 20:50:34 GMT 49.758682 20.658417 18,100 332 441 -3136
2023-01-22 20:50:30 GMT 49.749912 20.665876 18,425 332 443 -2816
2023-01-22 20:50:27 GMT 49.745819 20.669331 18,800 332 445 -3072
2023-01-22 20:50:24 GMT 49.740414 20.673967 18,925 332 445 -3136
2023-01-22 20:50:20 GMT 49.731754 20.681393 18,925 331 447 -3264
2023-01-22 20:50:17 GMT 49.727055 20.685400 19,100 331 448 -3008
2023-01-22 20:50:14 GMT 49.721794 20.689854 19,150 331 449 -3008
2023-01-22 20:50:10 GMT 49.712494 20.697809 19,425 332 452 -3328
2023-01-22 20:50:07 GMT 49.708668 20.701063 19,500 332 452 -3328
2023-01-22 20:50:03 GMT 49.702057 20.706627 19,725 332 453 -3584
2023-01-22 20:50:00 GMT 49.694687 20.712770 20,000 332 455 -3328
2023-01-22 20:49:57 GMT 49.689857 20.716801 20,375 332 457 -3392
2023-01-22 20:49:54 GMT 49.684692 20.721031 20,575 332 458 -3456
2023-01-22 20:49:51 GMT 49.679443 20.725348 20,475 332 458 -3456
2023-01-22 20:49:48 GMT 49.672943 20.730696 21,625 332 460 -3520
2023-01-22 20:49:44 GMT 49.664303 20.737808 20,850 332 459 -3456
2023-01-22 20:49:39 GMT 49.655914 20.744789 21,200 332 460 -3648
2023-01-22 20:49:36 GMT 49.652336 20.747755 21,250 332 460 -3840
2023-01-22 20:49:33 GMT 49.645203 20.753679 21,475 332 461 -3776
2023-01-22 20:49:27 GMT 49.633209 20.763800 21,850 332 463 -3328
2023-01-22 20:49:23 GMT 49.627762 20.768353 22,450 332 465 -3776
2023-01-22 20:49:20 GMT 49.620026 20.774857 22,350 332 464 -3712
2023-01-22 20:49:17 GMT 49.615517 20.778635 22,625 332 465 -3712
2023-01-22 20:49:14 GMT 49.608906 20.784128 22,725 332 465 -3648
2023-01-22 20:49:11 GMT 49.604946 20.787470 22,825 332 466 -3520
2023-01-22 20:49:08 GMT 49.598511 20.792782 23,200 332 467 -3328
2023-01-22 20:49:05 GMT 49.593540 20.796896 23,100 333 467 -3264
2023-01-22 20:49:02 GMT 49.586288 20.802757 23,375 333 468 -3264
2023-01-22 20:48:59 GMT 49.579762 20.808031 23,500 333 470 -3392
2023-01-22 20:48:55 GMT 49.573975 20.812658 23,950 333 472 -2880
2023-01-22 20:48:52 GMT 49.564865 20.819834 23,975 333 473 -2816
2023-01-22 20:48:47 GMT 49.555325 20.827406 24,850 333 477 -2944
2023-01-22 20:48:44 GMT 49.550262 20.831379 24,350 333 477 -2880
2023-01-22 20:48:41 GMT 49.544804 20.835794 24,400 333 477 -3008
2023-01-22 20:48:37 GMT 49.528885 20.848436 24,675 333 479 -3392
2023-01-22 20:48:33 GMT 49.528885 20.848436 24,850 333 479 -3392
2023-01-22 20:48:28 GMT 49.520454 20.855244 25,150 333 483 -2496
2023-01-22 20:48:25 GMT 49.514359 20.860216 25,150 333 483 -2496
2023-01-22 20:48:22 GMT 49.508423 20.865061 25,525 332 487 -2048
2023-01-22 20:48:18 GMT 49.499863 20.872072 25,500 332 490 -2560
2023-01-22 20:48:15 GMT 49.494247 20.876621 25,600 332 491 -2880
2023-01-22 20:48:11 GMT 49.480282 20.888275 25,825 332 492 -3264
2023-01-22 20:48:08 GMT 49.480282 20.888275 26,000 332 493 -3200
2023-01-22 20:48:05 GMT 49.475464 20.892309 26,125 332 494 -3136
2023-01-22 20:48:02 GMT 49.467682 20.898960 26,275 332 495 -3136
2023-01-22 20:47:58 GMT 49.459660 20.905720 26,525 331 496 -3328
2023-01-22 20:47:55 GMT 49.453629 20.910885 26,950 331 499 -3008
2023-01-22 20:47:50 GMT 49.445644 20.917820 26,825 331 497 -3136
2023-01-22 20:47:47 GMT 49.439621 20.922956 27,100 331 499 -3008
2023-01-22 20:47:44 GMT 49.432571 20.929028 27,200 331 500 -3008
2023-01-22 20:47:40 GMT 49.417236 20.942265 27,700 331 504 -2816
2023-01-22 20:47:37 GMT 49.417236 20.942265 27,625 331 502 -2816
2023-01-22 20:47:34 GMT 49.412781 20.946157 27,750 331 504 -2816
2023-01-22 20:47:31 GMT 49.404865 20.952951 27,875 331 504 -2944
2023-01-22 20:47:25 GMT 49.391693 20.964449 28,200 331 505 -3264
2023-01-22 20:47:22 GMT 49.386246 20.969238 28,425 331 505 -3008
2023-01-22 20:47:19 GMT 49.383408 20.971703 28,425 331 505 -3008
2023-01-22 20:47:15 GMT 49.373444 20.980417 28,725 331 506 -2880
2023-01-22 20:47:12 GMT 49.368347 20.984873 28,950 331 506 -3072
2023-01-22 20:47:09 GMT 49.360794 20.991423 28,950 331 506 -3072
2023-01-22 20:47:05 GMT 49.352448 20.998705 29,175 331 507 -3136
2023-01-22 20:47:02 GMT 49.346329 21.003958 29,300 331 507 -3200
2023-01-22 20:46:59 GMT 49.333687 21.014822 29,725 331 506 -3200
2023-01-22 20:46:55 GMT 49.333687 21.014822 29,725 331 506 -3264
2023-01-22 20:46:52 GMT 49.326519 21.020966 29,975 331 506 -3264
2023-01-22 20:46:49 GMT 49.322021 21.024803 29,975 331 506 -3264
2023-01-22 20:46:46 GMT 49.313438 21.032169 30,150 331 506 -3456
2023-01-22 20:46:43 GMT 49.306732 21.037951 31,025 331 502 -3520
2023-01-22 20:46:40 GMT 49.302078 21.042000 30,500 331 505 -3712
2023-01-22 20:46:36 GMT 49.293980 21.049082 30,775 331 503 -3712
2023-01-22 20:46:33 GMT 49.281643 21.059778 31,025 331 502 -3520
2023-01-22 20:46:30 GMT 49.281643 21.059778 31,100 331 502 -3328
2023-01-22 20:46:24 GMT 49.268600 21.071283 31,475 331 500 -3648
2023-01-22 20:46:21 GMT 49.263977 21.075298 31,600 331 499 -3904
2023-01-22 20:46:18 GMT 49.258392 21.080229 31,800 331 497 -4096
2023-01-22 20:46:14 GMT 49.250450 21.087173 32,200 331 494 -4352
2023-01-22 20:46:11 GMT 49.244110 21.092764 32,375 331 491 -4352
2023-01-22 20:46:08 GMT 49.231888 21.103397 32,875 331 489 -3072
2023-01-22 20:46:05 GMT 49.231888 21.103397 32,750 331 489 -3456
2023-01-22 20:46:01 GMT 49.225021 21.109385 32,950 331 488 -2816
2023-01-22 20:45:58 GMT 49.218330 21.115145 33,075 331 488 -2560
2023-01-22 20:45:54 GMT 49.210323 21.122229 33,275 330 487 -1536
2023-01-22 20:45:51 GMT 49.200394 21.131004 33,350 330 487 -1216
2023-01-22 20:45:48 GMT 49.200394 21.131004 33,375 330 487 -1152
2023-01-22 20:45:45 GMT 49.193619 21.137060 33,450 330 486 -960
2023-01-22 20:45:42 GMT 49.187576 21.142414 33,500 330 486 -960
2023-01-22 20:45:39 GMT 49.181370 21.147959 33,550 330 486 -960
2023-01-22 20:45:36 GMT 49.175968 21.152802 33,600 330 486 -960
2023-01-22 20:45:33 GMT 49.169724 21.158331 33,650 330 485 -960
2023-01-22 20:45:30 GMT 49.162949 21.164387 33,750 330 484 -960
2023-01-22 20:45:27 GMT 49.158920 21.167978 33,725 330 485 -960
2023-01-22 20:45:24 GMT 49.152878 21.173330 33,800 330 484 -960
2023-01-22 20:45:21 GMT 49.140106 21.184669 33,850 330 483 -960
2023-01-22 20:45:18 GMT 49.140106 21.184669 33,850 330 484 -896
2023-01-22 20:45:13 GMT 49.125412 21.197699 33,950 330 484 -960
2023-01-22 20:45:10 GMT 49.125412 21.197699 34,000 330 483 -960
2023-01-22 20:45:07 GMT 49.112274 21.209248 34,075 330 483 -960
2023-01-22 20:45:03 GMT 49.112274 21.209248 34,100 330 482 -960
2023-01-22 20:45:00 GMT 49.106827 21.214037 34,200 331 482 -960
2023-01-22 20:44:57 GMT 49.101067 21.219082 34,200 331 482 -960
2023-01-22 20:44:53 GMT 49.092548 21.226599 34,350 330 479 -960
2023-01-22 20:44:50 GMT 49.085632 21.232698 34,350 331 480 -960
2023-01-22 20:44:46 GMT 49.080048 21.237558 34,350 331 480 -960
2023-01-22 20:44:42 GMT 49.064522 21.251173 34,450 331 478 -960
2023-01-22 20:44:39 GMT 49.064522 21.251173 34,500 331 478 -960
2023-01-22 20:44:36 GMT 49.061462 21.253897 34,625 331 476 -960
2023-01-22 20:44:32 GMT 49.053268 21.261080 34,600 331 476 -960
2023-01-22 20:44:29 GMT 49.047531 21.266062 34,675 331 475 -960
2023-01-22 20:44:26 GMT 49.042007 21.270941 34,675 331 475 -960
2023-01-22 20:44:22 GMT 49.028366 21.282911 34,775 331 473 -960
2023-01-22 20:44:19 GMT 49.028366 21.282911 34,800 331 473 -896
2023-01-22 20:44:16 GMT 49.022873 21.287701 34,825 331 472 -960
2023-01-22 20:44:13 GMT 49.016602 21.293123 34,900 331 472 -896
2023-01-22 20:44:10 GMT 49.010559 21.298407 34,950 331 471 -896
2023-01-22 20:44:07 GMT 49.004658 21.303501 35,075 331 470 -896
2023-01-22 20:44:04 GMT 48.999756 21.307701 35,050 331 470 -896
2023-01-22 20:44:01 GMT 48.993896 21.312773 35,100 331 470 -896
2023-01-22 20:43:58 GMT 48.989342 21.316729 35,100 331 470 -896
2023-01-22 20:43:55 GMT 48.983871 21.321436 35,200 331 469 -896
2023-01-22 20:43:52 GMT 48.975796 21.328438 35,325 331 468 -896
2023-01-22 20:43:49 GMT 48.970673 21.332775 35,300 331 468 -896
2023-01-22 20:43:46 GMT 48.963913 21.338690 35,325 331 468 -896
2023-01-22 20:43:42 GMT 48.956753 21.344845 35,400 331 468 -960
2023-01-22 20:43:39 GMT 48.951679 21.349255 35,425 331 468 -1024
2023-01-22 20:43:35 GMT 48.943626 21.356339 35,500 331 469 -960
2023-01-22 20:43:31 GMT 48.937592 21.361576 35,600 330 469 -896
2023-01-22 20:43:28 GMT 48.931942 21.366529 35,625 330 470 -960
2023-01-22 20:43:24 GMT 48.923515 21.373974 35,675 331 469 -960
2023-01-22 20:43:21 GMT 48.918274 21.378550 35,750 332 469 -960
2023-01-22 20:43:18 GMT 48.912552 21.383339 35,800 333 469 -960
2023-01-22 20:43:15 GMT 48.901218 21.392260 35,825 333 469 -960
2023-01-22 20:43:12 GMT 48.901218 21.392260 35,900 335 470 -960
2023-01-22 20:43:09 GMT 48.895958 21.396164 35,900 335 470 -960
2023-01-22 20:43:05 GMT 48.886093 21.403128 35,975 336 471 -960
2023-01-22 20:43:01 GMT 48.880325 21.407001 36,050 338 473 -960
2023-01-22 20:42:58 GMT 48.872406 21.411930 36,075 339 475 -960
2023-01-22 20:42:53 GMT 48.858017 21.420088 36,400 344 482 -960
2023-01-22 20:42:50 GMT 48.858017 21.420088 36,400 344 482 -960
2023-01-22 20:42:46 GMT 48.844528 21.426790 36,250 344 482 -960
2023-01-22 20:42:43 GMT 48.841324 21.428200 36,375 349 488 -896
2023-01-22 20:42:40 GMT 48.834461 21.431074 36,475 349 488 -896
2023-01-22 20:42:37 GMT 48.828129 21.433531 36,375 348 487 -896
2023-01-22 20:42:34 GMT 48.821548 21.435804 36,425 349 488 -896
2023-01-22 20:42:30 GMT 48.814728 21.437988 36,500 349 490 -960
2023-01-22 20:42:27 GMT 48.806717 21.440325 36,525 349 491 -1024
2023-01-22 20:42:24 GMT 48.800243 21.442278 36,625 349 492 -1024
2023-01-22 20:42:21 GMT 48.793358 21.444302 36,675 350 491 -1024
2023-01-22 20:42:18 GMT 48.786896 21.446228 37,000 350 492 0
2023-01-22 20:42:15 GMT 48.773941 21.449890 37,000 350 491 -64
2023-01-22 20:42:12 GMT 48.773941 21.449890 36,875 350 491 -1024
2023-01-22 20:42:09 GMT 48.767441 21.451792 36,975 350 491 -704
2023-01-22 20:42:06 GMT 48.760769 21.453625 36,925 350 491 -960
2023-01-22 20:42:03 GMT 48.753616 21.455666 37,000 350 491 -640
2023-01-22 20:42:00 GMT 48.740250 21.459398 37,000 350 491 -192
2023-01-22 20:41:57 GMT 48.740250 21.459398 37,000 350 491 0
2023-01-22 20:41:54 GMT 48.732651 21.461502 37,000 350 491 0
2023-01-22 20:41:49 GMT 48.721245 21.464684 37,000 350 491 0
2023-01-22 20:41:46 GMT 48.715660 21.466202 37,000 350 492 0
2023-01-22 20:41:42 GMT 48.704269 21.469398 37,000 350 492 0
2023-01-22 20:41:39 GMT 48.698044 21.471088 37,000 350 492 0
2023-01-22 20:41:36 GMT 48.692245 21.472706 37,000 350 491 0
2023-01-22 20:41:33 GMT 48.684631 21.474821 37,000 350 492 0
2023-01-22 20:41:30 GMT 48.679504 21.476229 37,000 350 492 0
2023-01-22 20:41:26 GMT 48.671219 21.478483 37,000 348 488 0
2023-01-22 20:41:23 GMT 48.662064 21.481018 37,000 350 492 0
2023-01-22 20:41:20 GMT 48.656937 21.482496 37,000 350 491 -64
2023-01-22 20:41:17 GMT 48.652023 21.483837 37,000 350 491 -64
2023-01-22 20:41:14 GMT 48.634415 21.488693 37,000 347 488 0
2023-01-22 20:41:10 GMT 48.634415 21.488693 37,000 350 490 64
2023-01-22 20:41:07 GMT 48.629494 21.490053 37,000 350 490 64
2023-01-22 20:41:04 GMT 48.623062 21.491863 37,000 350 489 64
2023-01-22 20:41:01 GMT 48.615738 21.493906 37,000 350 488 64
2023-01-22 20:40:58 GMT 48.607056 21.496269 37,000 350 488 0
2023-01-22 20:40:55 GMT 48.589317 21.501110 37,000 349 488 0
2023-01-22 20:40:50 GMT 48.584885 21.502357 37,000 350 488 0
2023-01-22 20:40:47 GMT 48.584885 21.502357 37,000 349 488 0
2023-01-22 20:40:44 GMT 48.577820 21.504581 37,000 348 488 0
2023-01-22 20:40:40 GMT 48.568542 21.507710 37,000 346 488 0
2023-01-22 20:40:37 GMT 48.562637 21.509892 37,000 345 488 0
2023-01-22 20:40:34 GMT 48.555241 21.512821 37,000 345 488 0
2023-01-22 20:40:30 GMT 48.545464 21.517084 37,000 342 488 0
2023-01-22 20:40:27 GMT 48.540112 21.519615 37,000 342 488 0
2023-01-22 20:40:24 GMT 48.533661 21.522779 37,000 267 462 64
2023-01-22 20:40:19 GMT 48.522236 21.529011 37,000 339 488 0
2023-01-22 20:40:16 GMT 48.515945 21.532782 37,000 338 487 0
2023-01-22 20:40:13 GMT 48.502125 21.541878 37,000 336 488 0
2023-01-22 20:40:09 GMT 48.502125 21.541878 37,000 335 488 0
2023-01-22 20:40:06 GMT 48.496811 21.545597 37,000 335 488 0
2023-01-22 20:40:03 GMT 48.490860 21.549753 37,000 335 488 0
2023-01-22 20:39:59 GMT 48.474285 21.561392 37,000 335 488 64
2023-01-22 20:39:56 GMT 48.474285 21.561392 37,000 335 489 64
2023-01-22 20:39:53 GMT 48.465317 21.567781 37,000 335 489 0
2023-01-22 20:39:50 GMT 48.465317 21.567781 37,000 335 489 0
2023-01-22 20:39:47 GMT 48.459206 21.572161 37,000 335 489 0
2023-01-22 20:39:44 GMT 48.451263 21.578064 37,000 333 489 -64
2023-01-22 20:39:41 GMT 48.446869 21.581514 37,000 333 489 -64
2023-01-22 20:39:38 GMT 48.439590 21.587643 37,000 326 489 0
2023-01-22 20:39:35 GMT 48.433693 21.593340 37,000 324 488 0
2023-01-22 20:39:32 GMT 48.420776 21.608627 37,000 319 487 0
2023-01-22 20:39:28 GMT 48.420776 21.608627 37,000 318 486 64
2023-01-22 20:39:25 GMT 48.416515 21.614590 37,000 315 486 64
2023-01-22 20:39:22 GMT 48.412140 21.621384 37,000 313 486 0
2023-01-22 20:39:18 GMT 48.406128 21.631868 37,000 307 483 -64
2023-01-22 20:39:14 GMT 48.401619 21.641043 37,000 304 482 -64
2023-01-22 20:39:11 GMT 48.397705 21.649967 37,000 301 481 -64
2023-01-22 20:39:07 GMT 48.392727 21.663378 37,000 297 479 0
2023-01-22 20:39:04 GMT 48.390537 21.670242 37,000 281 471 0
2023-01-22 20:39:01 GMT 48.386677 21.684698 37,000 287 474 64
2023-01-22 20:38:58 GMT 48.385231 21.691277 37,000 287 474 64
2023-01-22 20:38:54 GMT 48.383286 21.702084 37,000 283 473 0
2023-01-22 20:38:50 GMT 48.381508 21.715488 37,000 277 469 -64
2023-01-22 20:38:47 GMT 48.380764 21.723585 37,000 275 467 -64
2023-01-22 20:38:44 GMT 48.380173 21.735184 37,000 273 466 0
2023-01-22 20:38:40 GMT 48.380253 21.751629 37,000 267 462 64
2023-01-22 20:38:37 GMT 48.380577 21.757990 37,000 264 459 0
2023-01-22 20:38:34 GMT 48.381363 21.767508 37,000 261 458 0
2023-01-22 20:38:30 GMT 48.384487 21.788853 37,000 255 455 0
2023-01-22 20:38:27 GMT 48.384487 21.788853 37,000 253 452 0
2023-01-22 20:38:24 GMT 48.386768 21.799259 37,000 250 451 0
2023-01-22 20:38:20 GMT 48.389469 21.809380 37,000 244 447 128
2023-01-22 20:38:17 GMT 48.395985 21.828028 37,000 242 445 128
2023-01-22 20:38:14 GMT 48.395985 21.828028 37,000 239 443 0
2023-01-22 20:38:11 GMT 48.398849 21.834764 37,000 233 440 -128
2023-01-22 20:38:08 GMT 48.401852 21.840893 37,000 232 438 -64
2023-01-22 20:38:05 GMT 48.404892 21.846666 37,000 229 437 -64
2023-01-22 20:38:02 GMT 48.409763 21.854698 37,000 226 434 0
2023-01-22 20:37:59 GMT 48.413349 21.859974 37,000 219 429 0
2023-01-22 20:37:56 GMT 48.418938 21.867203 37,000 218 429 -64
2023-01-22 20:37:52 GMT 48.424667 21.873499 37,000 212 425 -64
2023-01-22 20:37:49 GMT 48.429153 21.877865 37,000 208 423 0
2023-01-22 20:37:46 GMT 48.436394 21.883755 37,000 206 422 64
2023-01-22 20:37:43 GMT 48.441887 21.887440 37,000 202 420 64
2023-01-22 20:37:38 GMT 48.454559 21.893709 37,000 194 417 0
2023-01-22 20:37:35 GMT 48.454559 21.893709 37,000 194 417 0
2023-01-22 20:37:32 GMT 48.460228 21.895535 37,000 188 414 -64
2023-01-22 20:37:29 GMT 48.471588 21.897488 37,000 184 412 0
2023-01-22 20:37:26 GMT 48.479595 21.897558 37,000 179 412 0
2023-01-22 20:37:23 GMT 48.479595 21.897558 37,000 177 411 0
2023-01-22 20:37:20 GMT 48.494614 21.894695 37,000 171 409 0
2023-01-22 20:37:15 GMT 48.494614 21.894695 37,000 167 409 64
2023-01-22 20:37:12 GMT 48.505337 21.890186 37,000 163 409 64
2023-01-22 20:37:09 GMT 48.505337 21.890186 37,000 160 409 0
2023-01-22 20:37:05 GMT 48.510315 21.887512 37,000 159 409 0
2023-01-22 20:37:02 GMT 48.517227 21.883568 37,000 158 409 -64
2023-01-22 20:36:59 GMT 48.520561 21.881584 37,000 159 410 -64
2023-01-22 20:36:56 GMT 48.527634 21.877539 37,000 159 410 -64
2023-01-22 20:36:53 GMT 48.533131 21.874357 37,000 159 410 0
2023-01-22 20:36:50 GMT 48.538422 21.871313 37,000 159 410 0
2023-01-22 20:36:46 GMT 48.546211 21.866768 37,000 158 410 64
2023-01-22 20:36:42 GMT 48.552402 21.863228 37,000 158 410 64
2023-01-22 20:36:39 GMT 48.556778 21.860624 37,000 158 410 64
2023-01-22 20:36:35 GMT 48.563507 21.856735 37,000 158 410 0
2023-01-22 20:36:32 GMT 48.570232 21.852819 37,000 158 410 0
2023-01-22 20:36:28 GMT 48.584747 21.844412 37,000 158 411 0
2023-01-22 20:36:24 GMT 48.584747 21.844412 37,000 158 411 0
2023-01-22 20:36:20 GMT 48.590607 21.841032 37,000 158 411 0
2023-01-22 20:36:16 GMT 48.597885 21.836805 37,000 158 411 64
2023-01-22 20:36:13 GMT 48.602280 21.834200 37,000 158 412 0
2023-01-22 20:36:10 GMT 48.608505 21.830608 37,000 158 412 0
2023-01-22 20:36:06 GMT 48.615784 21.826384 37,000 158 412 0
2023-01-22 20:36:03 GMT 48.620789 21.823473 37,000 158 412 0
2023-01-22 20:36:00 GMT 48.630203 21.818003 37,000 158 412 0
2023-01-22 20:35:56 GMT 48.633217 21.816319 37,000 159 413 0
2023-01-22 20:35:53 GMT 48.639828 21.812487 37,000 159 413 0
2023-01-22 20:35:49 GMT 48.646225 21.808777 37,000 158 415 0
2023-01-22 20:35:45 GMT 48.653366 21.804623 37,000 159 413 -64
2023-01-22 20:35:42 GMT 48.658493 21.801645 37,000 159 413 -64
2023-01-22 20:35:39 GMT 48.668655 21.795818 37,000 159 413 64
2023-01-22 20:35:36 GMT 48.668655 21.795818 37,000 159 413 64
2023-01-22 20:35:33 GMT 48.675812 21.791672 37,000 159 413 64
2023-01-22 20:35:29 GMT 48.681351 21.788490 37,000 159 413 64
2023-01-22 20:35:27 GMT 48.686325 21.785606 37,000 159 413 0
2023-01-22 20:35:23 GMT 48.692059 21.782274 37,000 159 414 0
2023-01-22 20:35:20 GMT 48.705791 21.774324 37,000 158 414 0
2023-01-22 20:35:16 GMT 48.705791 21.774324 37,000 159 414 0
2023-01-22 20:35:13 GMT 48.709702 21.772083 37,000 158 414 0
2023-01-22 20:35:10 GMT 48.715939 21.768396 37,000 158 413 0
2023-01-22 20:35:07 GMT 48.720409 21.765795 37,000 158 413 0
2023-01-22 20:35:04 GMT 48.725784 21.762718 37,000 158 413 0
2023-01-22 20:35:01 GMT 48.737724 21.755676 37,000 158 414 0
2023-01-22 20:34:58 GMT 48.737724 21.755676 37,000 158 414 0
2023-01-22 20:34:54 GMT 48.744873 21.751520 37,000 158 414 0
2023-01-22 20:34:49 GMT 48.752342 21.747147 37,000 158 414 0
2023-01-22 20:34:45 GMT 48.760582 21.742376 37,000 158 414 0
2023-01-22 20:34:42 GMT 48.766823 21.738691 37,000 158 414 0
2023-01-22 20:34:39 GMT 48.771103 21.736238 37,000 158 414 0
2023-01-22 20:34:35 GMT 48.779297 21.731392 37,000 158 414 0
2023-01-22 20:34:32 GMT 48.789120 21.725609 37,000 158 414 0
2023-01-22 20:34:29 GMT 48.789120 21.725609 37,000 158 415 0
2023-01-22 20:34:26 GMT 48.792519 21.723658 37,000 158 415 0
2023-01-22 20:34:23 GMT 48.799805 21.719337 37,000 158 414 0
2023-01-22 20:34:20 GMT 48.811249 21.712576 37,000 158 415 0
2023-01-22 20:34:17 GMT 48.811249 21.712576 37,000 158 415 0
2023-01-22 20:34:13 GMT 48.817474 21.708914 37,000 158 415 0
2023-01-22 20:34:10 GMT 48.823380 21.705463 37,000 158 414 0
2023-01-22 20:34:08 GMT 48.826218 21.703773 37,000 158 415 0
2023-01-22 20:34:05 GMT 48.837662 21.697083 37,000 158 415 0
2023-01-22 20:34:02 GMT 48.837662 21.697083 37,000 158 415 0
2023-01-22 20:33:59 GMT 48.842655 21.694166 37,000 158 414 0
2023-01-22 20:33:56 GMT 48.854599 21.687153 37,000 158 415 -64
2023-01-22 20:33:52 GMT 48.854599 21.687153 37,000 158 414 0
2023-01-22 20:33:49 GMT 48.860855 21.683470 37,000 158 413 0
2023-01-22 20:33:46 GMT 48.866409 21.680250 37,000 158 414 0
2023-01-22 20:33:42 GMT 48.871750 21.677111 37,000 158 414 0
2023-01-22 20:33:39 GMT 48.878906 21.672928 37,000 158 415 64
2023-01-22 20:33:36 GMT 48.883347 21.670321 37,000 158 414 64
2023-01-22 20:33:32 GMT 48.890305 21.666237 37,000 158 414 0
2023-01-22 20:33:28 GMT 48.897820 21.661787 37,000 158 414 0
2023-01-22 20:33:25 GMT 48.901543 21.659618 37,000 158 415 0
2023-01-22 20:33:22 GMT 48.908154 21.655716 37,000 158 415 0
2023-01-22 20:33:19 GMT 48.920517 21.648489 37,000 158 415 0
2023-01-22 20:33:16 GMT 48.920517 21.648489 37,000 158 415 0
2023-01-22 20:33:13 GMT 48.924271 21.646305 37,000 158 415 0
2023-01-22 20:33:10 GMT 48.929615 21.643139 37,000 158 415 0
2023-01-22 20:33:07 GMT 48.934982 21.640038 37,000 158 415 0
2023-01-22 20:33:04 GMT 48.941391 21.636200 37,000 158 415 0
2023-01-22 20:33:00 GMT 48.948002 21.632298 37,000 158 415 0
2023-01-22 20:32:57 GMT 48.953915 21.628828 37,000 158 415 0
2023-01-22 20:32:52 GMT 48.962128 21.623981 37,000 158 415 0
2023-01-22 20:32:49 GMT 48.966934 21.621164 37,000 158 415 0
2023-01-22 20:32:46 GMT 48.972301 21.617987 37,000 158 415 0
2023-01-22 20:32:43 GMT 48.978745 21.614191 37,000 158 415 64
2023-01-22 20:32:39 GMT 48.984779 21.610613 37,000 158 415 0
2023-01-22 20:32:36 GMT 48.990318 21.607361 37,000 158 415 0
2023-01-22 20:32:33 GMT 48.995682 21.604193 37,000 158 415 0
2023-01-22 20:32:30 GMT 49.000854 21.601164 37,000 158 415 -64
2023-01-22 20:32:27 GMT 49.006210 21.597994 37,000 158 415 -64
2023-01-22 20:32:24 GMT 49.011429 21.594896 37,000 158 415 -64
2023-01-22 20:32:21 GMT 49.024292 21.587360 37,000 158 415 0
2023-01-22 20:32:17 GMT 49.024292 21.587360 37,000 158 415 0
2023-01-22 20:32:14 GMT 49.035690 21.580599 37,000 158 415 0
2023-01-22 20:32:11 GMT 49.035690 21.580599 37,000 158 415 0
2023-01-22 20:32:08 GMT 49.039989 21.578016 37,000 158 415 0
2023-01-22 20:32:05 GMT 49.045158 21.574980 37,000 158 415 0
2023-01-22 20:32:02 GMT 49.051765 21.571077 37,000 158 415 0
2023-01-22 20:31:59 GMT 49.058376 21.567175 37,000 158 415 0
2023-01-22 20:31:56 GMT 49.061962 21.565006 37,000 158 415 0
2023-01-22 20:31:53 GMT 49.068787 21.561022 37,000 158 415 0
2023-01-22 20:31:50 GMT 49.072716 21.558718 37,000 158 415 0
2023-01-22 20:31:47 GMT 49.078079 21.555529 37,000 158 416 0
2023-01-22 20:31:44 GMT 49.082886 21.552641 37,000 158 416 0
2023-01-22 20:31:41 GMT 49.087193 21.550116 37,000 158 416 0
2023-01-22 20:31:38 GMT 49.094547 21.545780 37,000 158 416 0
2023-01-22 20:31:35 GMT 49.099205 21.542961 37,000 158 416 0
2023-01-22 20:31:32 GMT 49.106327 21.538769 37,000 158 416 -64
2023-01-22 20:31:28 GMT 49.112411 21.535175 37,000 158 415 0
2023-01-22 20:31:25 GMT 49.116383 21.532843 37,000 158 416 -64
2023-01-22 20:31:22 GMT 49.121750 21.529612 37,000 158 415 0
2023-01-22 20:31:19 GMT 49.127460 21.526264 37,000 158 416 0
2023-01-22 20:31:16 GMT 49.134769 21.521854 37,000 158 416 0
2023-01-22 20:31:12 GMT 49.145149 21.515713 37,000 158 416 0
2023-01-22 20:31:09 GMT 49.145149 21.515713 37,000 158 416 0
2023-01-22 20:31:06 GMT 49.152134 21.511593 37,000 158 416 0
2023-01-22 20:31:03 GMT 49.157719 21.508266 37,000 158 416 0
2023-01-22 20:31:00 GMT 49.163086 21.505102 37,000 158 416 0
2023-01-22 20:30:57 GMT 49.173477 21.498976 37,000 158 416 0
2023-01-22 20:30:54 GMT 49.173477 21.498976 37,000 158 416 0
2023-01-22 20:30:51 GMT 49.177734 21.496441 37,000 158 416 0
2023-01-22 20:30:48 GMT 49.182392 21.493668 37,000 158 416 0
2023-01-22 20:30:45 GMT 49.189049 21.489763 37,000 158 414 0
2023-01-22 20:30:41 GMT 49.195816 21.485666 37,000 158 415 0
2023-01-22 20:30:38 GMT 49.200302 21.482990 37,000 158 415 0
2023-01-22 20:30:35 GMT 49.213722 21.474947 37,000 158 415 0
2023-01-22 20:30:32 GMT 49.218704 21.471910 37,000 158 415 0
2023-01-22 20:30:28 GMT 49.218704 21.471910 37,000 158 415 0
2023-01-22 20:30:25 GMT 49.225315 21.468008 37,000 158 416 0
2023-01-22 20:30:22 GMT 49.228527 21.466057 37,000 158 416 0
2023-01-22 20:30:19 GMT 49.242352 21.457817 37,000 158 416 0
2023-01-22 20:30:16 GMT 49.242352 21.457817 37,000 158 416 0
2023-01-22 20:30:13 GMT 49.246635 21.455288 37,000 158 416 0
2023-01-22 20:30:10 GMT 49.251476 21.452396 37,000 158 416 0
2023-01-22 20:30:07 GMT 49.257015 21.449142 37,000 158 416 0
2023-01-22 20:30:04 GMT 49.262375 21.445875 37,000 158 416 64
2023-01-22 20:30:00 GMT 49.268646 21.442142 37,000 158 416 64
2023-01-22 20:29:57 GMT 49.276707 21.437363 37,000 158 416 0
2023-01-22 20:29:54 GMT 49.280090 21.435383 37,000 158 416 0
2023-01-22 20:29:51 GMT 49.285831 21.431940 37,000 158 415 0
2023-01-22 20:29:47 GMT 49.292816 21.427706 37,000 158 415 0
2023-01-22 20:29:44 GMT 49.297806 21.424747 37,000 158 415 0
2023-01-22 20:29:40 GMT 49.304405 21.420738 37,000 158 415 0
2023-01-22 20:29:37 GMT 49.310505 21.417124 37,000 158 415 64
2023-01-22 20:29:34 GMT 49.315842 21.413902 37,000 158 415 0
2023-01-22 20:29:30 GMT 49.322479 21.409889 37,000 158 415 0
2023-01-22 20:29:27 GMT 49.328018 21.406578 37,000 158 414 0
2023-01-22 20:29:24 GMT 49.334805 21.402525 37,000 158 415 0
2023-01-22 20:29:20 GMT 49.340672 21.398981 37,000 158 415 0
2023-01-22 20:29:15 GMT 49.350677 21.392912 37,000 158 415 0
2023-01-22 20:29:11 GMT 49.363724 21.385099 37,000 158 415 -64
2023-01-22 20:29:08 GMT 49.363724 21.385099 37,000 158 415 -64
2023-01-22 20:29:05 GMT 49.367298 21.382936 37,000 158 415 0
2023-01-22 20:29:02 GMT 49.373909 21.379032 37,000 158 415 0
2023-01-22 20:28:59 GMT 49.378006 21.376507 37,000 158 414 64
2023-01-22 20:28:56 GMT 49.383545 21.373251 37,000 158 414 64
2023-01-22 20:28:53 GMT 49.388897 21.369999 37,000 158 414 0
2023-01-22 20:28:50 GMT 49.400116 21.363268 37,000 158 414 0
2023-01-22 20:28:47 GMT 49.400116 21.363268 37,000 158 414 0
2023-01-22 20:28:44 GMT 49.404774 21.360458 37,000 158 414 0
2023-01-22 20:28:41 GMT 49.409409 21.357704 37,000 158 414 0
2023-01-22 20:28:38 GMT 49.415108 21.354242 37,000 158 414 0
2023-01-22 20:28:35 GMT 49.421906 21.350239 37,000 158 414 0
2023-01-22 20:28:32 GMT 49.427582 21.346798 37,000 158 414 0
2023-01-22 20:28:29 GMT 49.432053 21.344133 37,000 158 414 0
2023-01-22 20:28:24 GMT 49.440804 21.338863 37,000 158 414 0
2023-01-22 20:28:21 GMT 49.446304 21.335594 37,000 158 414 0
2023-01-22 20:28:18 GMT 49.450974 21.332775 37,000 158 414 0
2023-01-22 20:28:14 GMT 49.458435 21.328295 37,000 158 414 0
2023-01-22 20:28:11 GMT 49.464294 21.324753 37,000 158 414 0
2023-01-22 20:28:08 GMT 49.476425 21.317524 37,000 158 413 0
2023-01-22 20:28:04 GMT 49.483704 21.313114 37,000 158 414 0
2023-01-22 20:28:01 GMT 49.483704 21.313114 37,000 158 414 0
2023-01-22 20:27:58 GMT 49.486542 21.311453 37,000 158 413 0
2023-01-22 20:27:55 GMT 49.492950 21.307550 37,000 158 413 0
2023-01-22 20:27:52 GMT 49.498295 21.304346 37,000 158 413 0
2023-01-22 20:27:48 GMT 49.504532 21.300611 37,000 158 413 0
2023-01-22 20:27:44 GMT 49.512169 21.296032 37,000 158 413 0
2023-01-22 20:27:41 GMT 49.516266 21.293509 37,000 158 413 0
2023-01-22 20:27:38 GMT 49.522293 21.289913 37,000 158 413 0
2023-01-22 20:27:35 GMT 49.532822 21.283552 37,000 158 413 0
2023-01-22 20:27:32 GMT 49.532822 21.283552 37,000 158 413 0
2023-01-22 20:27:29 GMT 49.537399 21.280741 37,000 158 413 0
2023-01-22 20:27:26 GMT 49.543636 21.277029 37,000 158 413 0
2023-01-22 20:27:23 GMT 49.549503 21.273466 37,000 158 413 0
2023-01-22 20:27:20 GMT 49.554108 21.270615 37,000 158 412 0
2023-01-22 20:27:17 GMT 49.567245 21.262665 37,000 158 412 0
2023-01-22 20:27:13 GMT 49.572372 21.259558 37,000 158 412 0
2023-01-22 20:27:10 GMT 49.572372 21.259558 37,000 158 412 0
2023-01-22 20:27:08 GMT 49.576080 21.257317 37,000 158 412 0
2023-01-22 20:27:05 GMT 49.587250 21.250450 37,000 158 412 0
2023-01-22 20:27:02 GMT 49.591324 21.247992 37,000 158 412 0
2023-01-22 20:26:59 GMT 49.591324 21.247992 37,000 158 412 0
2023-01-22 20:26:57 GMT 49.594891 21.245852 37,000 158 412 -64
2023-01-22 20:26:54 GMT 49.600712 21.242289 37,000 158 412 -64
2023-01-22 20:26:51 GMT 49.606949 21.238503 37,000 158 412 -64
2023-01-22 20:26:48 GMT 49.611374 21.235830 37,000 158 412 0
2023-01-22 20:26:45 GMT 49.615952 21.233030 37,000 158 412 0
2023-01-22 20:26:42 GMT 49.622356 21.229149 37,000 158 412 0
2023-01-22 20:26:39 GMT 49.627670 21.225946 37,000 158 412 0
2023-01-22 20:26:36 GMT 49.634216 21.221972 37,000 158 412 0
2023-01-22 20:26:32 GMT 49.638657 21.219297 37,000 158 412 0
2023-01-22 20:26:29 GMT 49.643784 21.216190 37,000 158 412 -64
2023-01-22 20:26:26 GMT 49.649826 21.212503 37,000 158 412 -64
2023-01-22 20:26:22 GMT 49.661694 21.205320 37,000 158 412 0
2023-01-22 20:26:19 GMT 49.661694 21.205320 37,000 158 412 0
2023-01-22 20:26:16 GMT 49.668400 21.201311 37,000 158 411 0
2023-01-22 20:26:12 GMT 49.676926 21.196169 37,000 158 411 0
2023-01-22 20:26:09 GMT 49.682373 21.192844 37,000 158 411 0
2023-01-22 20:26:06 GMT 49.687717 21.189583 37,000 158 411 -64
2023-01-22 20:26:03 GMT 49.691940 21.187061 37,025 158 410 -64
2023-01-22 20:26:00 GMT 49.703453 21.180082 37,025 158 411 -128
2023-01-22 20:25:57 GMT 49.703453 21.180082 37,025 158 410 -64
2023-01-22 20:25:53 GMT 49.709106 21.176580 37,025 158 411 320
2023-01-22 20:25:50 GMT 49.715240 21.172823 37,000 158 411 512
2023-01-22 20:25:47 GMT 49.721420 21.169064 36,950 158 411 384
2023-01-22 20:25:44 GMT 49.726170 21.166126 36,950 158 410 448
2023-01-22 20:25:40 GMT 49.730759 21.163282 36,900 158 410 832
2023-01-22 20:25:37 GMT 49.736252 21.159958 36,825 158 410 832
2023-01-22 20:25:34 GMT 49.742386 21.156199 36,825 158 411 832
2023-01-22 20:25:31 GMT 49.748932 21.152224 36,800 158 411 832
2023-01-22 20:25:27 GMT 49.754059 21.149115 36,675 158 412 896
2023-01-22 20:25:24 GMT 49.759918 21.145575 36,675 158 412 832
2023-01-22 20:25:21 GMT 49.769852 21.139502 36,650 158 413 704
2023-01-22 20:25:19 GMT 49.776958 21.135246 36,625 158 413 320
2023-01-22 20:25:16 GMT 49.776958 21.135246 36,625 158 413 448
2023-01-22 20:25:13 GMT 49.780357 21.133167 36,600 158 413 512
2023-01-22 20:25:10 GMT 49.783894 21.131014 36,550 158 413 896
2023-01-22 20:25:07 GMT 49.794556 21.124630 36,450 158 413 1024
2023-01-22 20:25:01 GMT 49.802235 21.119953 36,425 158 414 960
2023-01-22 20:24:58 GMT 49.807030 21.117060 36,375 158 415 768
2023-01-22 20:24:55 GMT 49.814896 21.112326 36,325 158 415 640
2023-01-22 20:24:52 GMT 49.817226 21.110971 36,275 158 415 512
2023-01-22 20:24:49 GMT 49.821487 21.108351 36,275 158 415 256
2023-01-22 20:24:46 GMT 49.826862 21.105106 36,275 158 415 128
2023-01-22 20:24:42 GMT 49.834854 21.100183 36,250 158 413 640
2023-01-22 20:24:38 GMT 49.841991 21.095827 36,250 158 413 640
2023-01-22 20:24:35 GMT 49.849411 21.091221 36,200 158 413 960
2023-01-22 20:24:31 GMT 49.854904 21.087824 36,150 158 413 960
2023-01-22 20:24:27 GMT 49.868572 21.079275 36,075 158 415 384
2023-01-22 20:24:24 GMT 49.868572 21.079275 36,075 158 414 256
2023-01-22 20:24:21 GMT 49.873180 21.076454 36,050 158 414 256
2023-01-22 20:24:18 GMT 49.879372 21.072594 35,925 158 411 512
2023-01-22 20:24:15 GMT 49.883842 21.069847 36,025 158 413 512
2023-01-22 20:24:12 GMT 49.895901 21.062424 36,000 158 413 576
2023-01-22 20:24:09 GMT 49.895901 21.062424 35,950 158 413 704
2023-01-22 20:24:06 GMT 49.898552 21.060791 35,925 158 412 768
2023-01-22 20:24:03 GMT 49.903488 21.057673 35,900 158 413 768
2023-01-22 20:23:59 GMT 49.911678 21.052700 35,850 158 413 512
2023-01-22 20:23:56 GMT 49.917126 21.049286 35,825 158 413 448
2023-01-22 20:23:53 GMT 49.925133 21.044386 35,800 158 412 576
2023-01-22 20:23:49 GMT 49.931324 21.040525 35,775 158 412 704
2023-01-22 20:23:46 GMT 49.938213 21.036295 35,700 158 412 704
2023-01-22 20:23:43 GMT 49.938213 21.036295 35,675 158 412 640
2023-01-22 20:23:40 GMT 49.943527 21.033035 35,650 158 412 448
2023-01-22 20:23:37 GMT 49.956665 21.025013 35,625 158 412 448
2023-01-22 20:23:34 GMT 49.956665 21.025013 35,625 158 411 512
2023-01-22 20:23:30 GMT 49.963531 21.020821 35,575 158 412 704
2023-01-22 20:23:27 GMT 49.968845 21.017588 35,525 158 412 640
2023-01-22 20:23:24 GMT 49.973419 21.014750 35,200 158 411 640
2023-01-22 20:23:21 GMT 49.977493 21.012220 35,475 158 411 576
2023-01-22 20:23:18 GMT 49.983353 21.008678 35,475 158 411 576
2023-01-22 20:23:15 GMT 49.988632 21.005413 35,425 158 411 576
2023-01-22 20:23:12 GMT 49.992867 21.002815 35,400 158 411 576
2023-01-22 20:23:09 GMT 50.004868 20.995451 35,375 158 411 576
2023-01-22 20:23:06 GMT 50.004868 20.995451 35,325 158 411 640
2023-01-22 20:23:03 GMT 50.011024 20.991608 35,300 158 410 640
2023-01-22 20:23:00 GMT 50.015625 20.988802 35,275 158 410 640
2023-01-22 20:22:57 GMT 50.019821 20.986189 35,250 158 410 640
2023-01-22 20:22:54 GMT 50.027039 20.981733 35,200 158 410 640
2023-01-22 20:22:51 GMT 50.032158 20.978617 35,175 158 410 640
2023-01-22 20:22:48 GMT 50.037094 20.975502 35,150 158 409 640
2023-01-22 20:22:44 GMT 50.042351 20.972233 35,125 158 409 640
2023-01-22 20:22:40 GMT 50.050919 20.966888 35,075 158 409 576
2023-01-22 20:22:37 GMT 50.055862 20.963865 35,025 158 408 576
2023-01-22 20:22:34 GMT 50.066025 20.957577 34,900 158 407 640
2023-01-22 20:22:31 GMT 50.066025 20.957577 35,000 158 407 576
2023-01-22 20:22:28 GMT 50.071426 20.954252 34,950 158 407 640
2023-01-22 20:22:25 GMT 50.076710 20.951002 34,925 158 407 640
2023-01-22 20:22:22 GMT 50.082806 20.947216 34,875 158 407 640
2023-01-22 20:22:18 GMT 50.089603 20.942986 34,825 158 407 640
2023-01-22 20:22:15 GMT 50.095749 20.939125 34,775 158 407 704
2023-01-22 20:22:12 GMT 50.100952 20.935894 34,775 158 407 704
2023-01-22 20:22:09 GMT 50.104431 20.933725 34,725 158 406 704
2023-01-22 20:22:06 GMT 50.109669 20.930441 34,700 158 406 704
2023-01-22 20:22:03 GMT 50.114548 20.927437 34,650 158 406 768
2023-01-22 20:21:59 GMT 50.126724 20.919847 34,600 158 406 832
2023-01-22 20:21:56 GMT 50.126724 20.919847 34,600 158 406 832
2023-01-22 20:21:53 GMT 50.133362 20.915743 34,525 158 406 832
2023-01-22 20:21:50 GMT 50.138390 20.912624 34,500 158 406 896
2023-01-22 20:21:46 GMT 50.145035 20.908501 34,425 158 405 896
2023-01-22 20:21:43 GMT 50.149563 20.905645 34,300 158 406 896
2023-01-22 20:21:39 GMT 50.157383 20.900822 34,325 158 406 896
2023-01-22 20:21:35 GMT 50.165203 20.895922 34,250 158 407 896
2023-01-22 20:21:32 GMT 50.170650 20.892582 34,200 158 407 896
2023-01-22 20:21:28 GMT 50.175678 20.889463 34,150 158 407 960
2023-01-22 20:21:25 GMT 50.181976 20.885515 34,100 158 407 960
2023-01-22 20:21:22 GMT 50.185455 20.883377 34,075 158 407 960
2023-01-22 20:21:19 GMT 50.191727 20.879444 33,975 158 407 896
2023-01-22 20:21:16 GMT 50.198349 20.875360 33,975 158 407 832
2023-01-22 20:21:13 GMT 50.202724 20.872614 33,900 158 406 896
2023-01-22 20:21:10 GMT 50.207062 20.869904 33,875 158 407 1024
2023-01-22 20:21:07 GMT 50.213882 20.865639 33,800 158 407 1152
2023-01-22 20:21:04 GMT 50.218414 20.862814 33,750 158 407 1152
2023-01-22 20:21:01 GMT 50.224186 20.859177 33,675 158 408 1024
2023-01-22 20:20:58 GMT 50.228516 20.856430 33,650 158 408 960
2023-01-22 20:20:55 GMT 50.233261 20.853460 33,600 158 407 896
2023-01-22 20:20:52 GMT 50.238327 20.850315 33,575 158 407 960
2023-01-22 20:20:48 GMT 50.247757 20.844461 33,475 158 407 1024
2023-01-22 20:20:45 GMT 50.251606 20.842030 33,425 158 408 1024
2023-01-22 20:20:42 GMT 50.256500 20.838968 33,400 158 408 1024
2023-01-22 20:20:38 GMT 50.265106 20.833620 33,325 158 408 960
2023-01-22 20:20:35 GMT 50.270367 20.830376 33,275 158 408 960
2023-01-22 20:20:32 GMT 50.279259 20.824734 33,175 158 408 832
2023-01-22 20:20:29 GMT 50.279259 20.824734 33,100 158 408 832
2023-01-22 20:20:26 GMT 50.284702 20.821392 33,100 158 408 832
2023-01-22 20:20:23 GMT 50.298706 20.812588 33,075 158 408 832
2023-01-22 20:20:19 GMT 50.298706 20.812588 33,025 158 407 832
2023-01-22 20:20:16 GMT 50.302345 20.810331 33,000 158 407 896
2023-01-22 20:20:13 GMT 50.307587 20.807020 32,950 158 407 896
2023-01-22 20:20:10 GMT 50.311935 20.804276 32,875 158 407 832
2023-01-22 20:20:07 GMT 50.318069 20.800444 32,850 158 406 768
2023-01-22 20:20:04 GMT 50.324158 20.796541 32,825 157 406 768
2023-01-22 20:20:01 GMT 50.326786 20.794891 32,800 157 406 768
2023-01-22 20:19:58 GMT 50.334595 20.789965 32,525 157 405 896
2023-01-22 20:19:55 GMT 50.337914 20.787840 32,725 157 405 896
2023-01-22 20:19:51 GMT 50.345173 20.783237 32,675 157 405 960
2023-01-22 20:19:48 GMT 50.350250 20.780062 32,575 158 406 896
2023-01-22 20:19:45 GMT 50.356339 20.776232 32,575 158 406 896
2023-01-22 20:19:42 GMT 50.360863 20.773439 32,450 158 405 1024
2023-01-22 20:19:38 GMT 50.369892 20.767797 32,450 158 405 1024
2023-01-22 20:19:34 GMT 50.374054 20.765244 32,350 158 405 960
2023-01-22 20:19:31 GMT 50.380188 20.761414 32,350 158 405 960
2023-01-22 20:19:28 GMT 50.386791 20.757332 32,175 158 405 1152
2023-01-22 20:19:25 GMT 50.390945 20.754765 32,250 158 405 1152
2023-01-22 20:19:21 GMT 50.403488 20.747030 31,550 167 412 1216
2023-01-22 20:19:17 GMT 50.403488 20.747030 32,050 158 405 1344
2023-01-22 20:19:14 GMT 50.409416 20.743376 31,925 158 405 1408
2023-01-22 20:19:11 GMT 50.415329 20.739738 31,800 158 405 1408
2023-01-22 20:19:08 GMT 50.420746 20.736404 31,850 158 405 1408
2023-01-22 20:19:05 GMT 50.427200 20.732430 31,775 159 406 1408
2023-01-22 20:19:01 GMT 50.434090 20.728455 31,700 160 407 1408
2023-01-22 20:18:57 GMT 50.440327 20.725187 31,600 162 408 1408
2023-01-22 20:18:54 GMT 50.446243 20.722239 31,400 165 410 1472
2023-01-22 20:18:51 GMT 50.451687 20.719769 31,425 165 410 1472
2023-01-22 20:18:48 GMT 50.455551 20.718061 31,375 165 410 1472
2023-01-22 20:18:45 GMT 50.461929 20.715464 31,325 166 411 1408
2023-01-22 20:18:41 GMT 50.472309 20.711678 31,225 167 412 1088
2023-01-22 20:18:38 GMT 50.474171 20.711084 31,175 168 412 960
2023-01-22 20:18:35 GMT 50.486134 20.707447 31,125 169 412 1024
2023-01-22 20:18:32 GMT 50.486134 20.707447 31,075 172 412 1152
2023-01-22 20:18:29 GMT 50.491745 20.705904 30,975 173 413 1088
2023-01-22 20:18:26 GMT 50.496655 20.704996 30,875 183 417 768
2023-01-22 20:18:23 GMT 50.501999 20.704386 30,925 178 415 960
2023-01-22 20:18:20 GMT 50.509506 20.704386 30,850 186 418 832
2023-01-22 20:18:17 GMT 50.521236 20.705814 30,800 186 418 896
2023-01-22 20:18:14 GMT 50.521236 20.705814 30,800 186 418 960
2023-01-22 20:18:11 GMT 50.527195 20.706705 30,700 186 418 1152
2023-01-22 20:18:08 GMT 50.530838 20.707350 30,625 186 418 1152
2023-01-22 20:18:04 GMT 50.538925 20.708635 30,075 186 418 960
2023-01-22 20:18:01 GMT 50.544708 20.709518 30,550 186 418 832
2023-01-22 20:17:58 GMT 50.550247 20.710457 30,550 186 417 896
2023-01-22 20:17:54 GMT 50.557709 20.711685 30,450 186 417 1216
2023-01-22 20:17:51 GMT 50.564255 20.712770 30,375 186 416 1088
2023-01-22 20:17:48 GMT 50.570953 20.713831 30,350 186 416 896
2023-01-22 20:17:45 GMT 50.582775 20.715687 30,300 186 415 896
2023-01-22 20:17:42 GMT 50.582775 20.715687 30,225 186 415 1024
2023-01-22 20:17:39 GMT 50.586960 20.716385 30,175 186 415 1280
2023-01-22 20:17:36 GMT 50.591949 20.717171 30,125 186 415 1280
2023-01-22 20:17:33 GMT 50.597672 20.718119 30,075 186 415 1088
2023-01-22 20:17:30 GMT 50.603348 20.719057 30,000 186 414 960
2023-01-22 20:17:27 GMT 50.610802 20.720215 29,950 186 414 960
2023-01-22 20:17:24 GMT 50.615753 20.721010 29,925 186 414 1024
2023-01-22 20:17:21 GMT 50.621647 20.721922 29,850 186 413 1088
2023-01-22 20:17:18 GMT 50.629395 20.723179 29,775 186 413 1152
2023-01-22 20:17:15 GMT 50.634171 20.723927 29,750 186 413 1088
2023-01-22 20:17:12 GMT 50.637756 20.724520 29,750 186 413 1088
2023-01-22 20:17:08 GMT 50.646469 20.725925 29,625 186 412 960
2023-01-22 20:17:05 GMT 50.651962 20.726791 29,550 186 411 960
2023-01-22 20:17:02 GMT 50.657261 20.727638 29,525 186 411 1024
2023-01-22 20:16:59 GMT 50.665192 20.728888 29,475 186 411 1024
2023-01-22 20:16:55 GMT 50.671970 20.729980 29,400 186 410 1024
2023-01-22 20:16:52 GMT 50.675720 20.730606 29,375 186 410 960
2023-01-22 20:16:49 GMT 50.680260 20.731277 29,275 186 409 896
2023-01-22 20:16:45 GMT 50.690414 20.732908 29,250 186 406 832
2023-01-22 20:16:42 GMT 50.695667 20.733795 29,225 186 408 896
2023-01-22 20:16:38 GMT 50.702408 20.734913 29,175 186 408 960
2023-01-22 20:16:35 GMT 50.708221 20.735804 29,125 186 407 960
2023-01-22 20:16:32 GMT 50.712891 20.736618 29,075 186 407 896
2023-01-22 20:16:29 GMT 50.719643 20.737686 29,025 186 407 896
2023-01-22 20:16:26 GMT 50.727493 20.738997 28,975 186 406 896
2023-01-22 20:16:23 GMT 50.730255 20.739441 28,925 186 405 896
2023-01-22 20:16:20 GMT 50.736027 20.740356 28,850 186 405 896
2023-01-22 20:16:17 GMT 50.742542 20.741425 28,775 186 404 960
2023-01-22 20:16:14 GMT 50.747360 20.742188 28,775 186 404 960
2023-01-22 20:16:11 GMT 50.752029 20.742929 28,750 186 403 896
2023-01-22 20:16:08 GMT 50.763702 20.744785 28,600 186 402 832
2023-01-22 20:16:05 GMT 50.763702 20.744785 28,675 186 402 832
2023-01-22 20:16:02 GMT 50.768845 20.745621 28,625 186 401 960
2023-01-22 20:15:59 GMT 50.774944 20.746613 28,575 186 400 1088
2023-01-22 20:15:56 GMT 50.782486 20.747833 28,500 186 400 1088
2023-01-22 20:15:53 GMT 50.786350 20.748444 28,475 186 400 1024
2023-01-22 20:15:50 GMT 50.798500 20.750427 28,375 186 399 960
2023-01-22 20:15:44 GMT 50.802887 20.751095 28,325 186 398 1024
2023-01-22 20:15:41 GMT 50.808197 20.751986 28,300 186 398 1024
2023-01-22 20:15:38 GMT 50.811859 20.752581 28,225 186 398 1024
2023-01-22 20:15:35 GMT 50.817856 20.753546 28,200 186 397 1088
2023-01-22 20:15:32 GMT 50.825874 20.754776 28,100 186 397 1088
2023-01-22 20:15:29 GMT 50.829895 20.755474 28,050 186 396 960
2023-01-22 20:15:26 GMT 50.836624 20.756514 28,025 186 395 896
2023-01-22 20:15:23 GMT 50.845871 20.757999 27,850 186 394 1152
2023-01-22 20:15:20 GMT 50.845871 20.757999 27,925 186 394 1024
2023-01-22 20:15:17 GMT 50.850769 20.758816 27,875 186 394 1088
2023-01-22 20:15:14 GMT 50.857296 20.759888 27,800 186 393 1152
2023-01-22 20:15:11 GMT 50.863083 20.760820 27,750 186 393 1152
2023-01-22 20:15:08 GMT 50.875126 20.762711 27,675 186 392 1152
2023-01-22 20:15:05 GMT 50.875126 20.762711 27,625 186 392 1152
2023-01-22 20:15:01 GMT 50.880890 20.763641 27,550 186 391 1216
2023-01-22 20:14:58 GMT 50.886841 20.764606 27,500 186 391 1344
2023-01-22 20:14:52 GMT 50.902634 20.767130 27,350 186 390 1216
2023-01-22 20:14:49 GMT 50.906178 20.767746 26,175 186 385 1536
2023-01-22 20:14:42 GMT 50.915298 20.769196 27,150 186 389 1216
2023-01-22 20:14:39 GMT 50.920467 20.770035 27,075 186 388 1152
2023-01-22 20:14:36 GMT 50.926006 20.770950 27,050 186 388 1152
2023-01-22 20:14:33 GMT 50.931873 20.771866 26,975 186 387 1344
2023-01-22 20:14:30 GMT 50.937241 20.772772 26,925 186 387 1472
2023-01-22 20:14:27 GMT 50.944153 20.773886 26,825 186 387 1600
2023-01-22 20:14:24 GMT 50.945744 20.774155 26,800 186 387 1600
2023-01-22 20:14:21 GMT 50.952309 20.775223 26,700 186 387 1472
2023-01-22 20:14:18 GMT 50.958546 20.776291 26,625 186 386 1536
2023-01-22 20:14:13 GMT 50.966858 20.777596 26,500 186 386 1536
2023-01-22 20:14:10 GMT 50.972031 20.778486 26,400 186 386 1472
2023-01-22 20:14:07 GMT 50.976608 20.779190 26,350 186 386 1472
2023-01-22 20:14:04 GMT 50.982147 20.780106 26,200 186 384 1536
2023-01-22 20:14:00 GMT 50.989037 20.781250 26,150 186 385 1536
2023-01-22 20:13:57 GMT 50.994160 20.782089 26,100 186 385 1536
2023-01-22 20:13:54 GMT 51.002121 20.783386 26,000 186 384 1536
2023-01-22 20:13:50 GMT 51.009895 20.784683 25,900 186 384 1536
2023-01-22 20:13:47 GMT 51.012589 20.785093 25,850 186 384 1472
2023-01-22 20:13:44 GMT 51.017853 20.785904 25,775 186 383 1408
2023-01-22 20:13:41 GMT 51.024902 20.787098 25,700 186 383 1472
2023-01-22 20:13:37 GMT 51.030888 20.788040 25,575 186 382 1536
2023-01-22 20:13:34 GMT 51.036209 20.788954 25,525 186 382 1536
2023-01-22 20:13:30 GMT 51.043224 20.790100 25,375 186 381 1344
2023-01-22 20:13:27 GMT 51.049210 20.791033 25,325 186 381 1344
2023-01-22 20:13:24 GMT 51.053093 20.791702 25,175 186 381 1408
2023-01-22 20:13:21 GMT 51.058495 20.792542 25,175 186 381 1408
2023-01-22 20:13:18 GMT 51.064640 20.793533 25,125 186 381 1408
2023-01-22 20:13:15 GMT 51.067429 20.794001 25,025 186 381 1408
2023-01-22 20:13:12 GMT 51.074089 20.795059 25,000 186 380 1408
2023-01-22 20:13:09 GMT 51.084564 20.796738 24,925 186 380 1408
2023-01-22 20:13:06 GMT 51.084564 20.796738 24,850 186 379 1408
2023-01-22 20:13:03 GMT 51.091187 20.797861 24,775 186 379 1472
2023-01-22 20:13:00 GMT 51.094666 20.798382 24,700 186 378 1472
2023-01-22 20:12:57 GMT 51.104736 20.800014 24,625 186 377 1472
2023-01-22 20:12:54 GMT 51.104736 20.800014 24,600 186 376 1472
2023-01-22 20:12:50 GMT 51.112030 20.801239 24,475 186 376 1472
2023-01-22 20:12:47 GMT 51.117012 20.802002 24,400 186 376 1536
2023-01-22 20:12:44 GMT 51.124283 20.803205 24,325 186 375 1472
2023-01-22 20:12:41 GMT 51.127762 20.803726 24,225 186 374 1472
2023-01-22 20:12:38 GMT 51.133072 20.804617 24,150 186 374 1536
2023-01-22 20:12:35 GMT 51.138428 20.805508 24,100 186 374 1536
2023-01-22 20:12:31 GMT 51.145477 20.806622 23,975 186 373 1600
2023-01-22 20:12:27 GMT 51.151154 20.807587 23,925 186 372 1600
2023-01-22 20:12:24 GMT 51.159027 20.808847 23,750 186 372 1600
2023-01-22 20:12:21 GMT 51.162781 20.809443 23,700 187 372 1600
2023-01-22 20:12:18 GMT 51.167084 20.810184 23,625 187 372 1664
2023-01-22 20:12:15 GMT 51.173035 20.811150 23,550 187 372 1664
2023-01-22 20:12:12 GMT 51.176643 20.811768 23,450 187 371 1728
2023-01-22 20:12:09 GMT 51.181046 20.812485 23,400 187 371 1728
2023-01-22 20:12:06 GMT 51.187729 20.813599 23,325 187 371 1728
2023-01-22 20:12:02 GMT 51.201508 20.815901 23,200 186 369 1664
2023-01-22 20:11:59 GMT 51.201508 20.815901 23,075 186 369 1728
2023-01-22 20:11:56 GMT 51.205215 20.816494 23,050 186 369 1728
2023-01-22 20:11:52 GMT 51.211533 20.817533 22,900 186 368 1728
2023-01-22 20:11:49 GMT 51.216587 20.818405 22,825 186 368 1664
2023-01-22 20:11:46 GMT 51.223194 20.819473 22,700 186 367 1728
2023-01-22 20:11:43 GMT 51.225906 20.819908 22,625 186 367 1792
2023-01-22 20:11:40 GMT 51.237076 20.821764 22,550 186 367 1920
2023-01-22 20:11:37 GMT 51.241306 20.822449 22,450 186 367 1984
2023-01-22 20:11:34 GMT 51.241306 20.822449 22,400 186 366 1984
2023-01-22 20:11:31 GMT 51.246002 20.823175 22,325 186 366 1984
2023-01-22 20:11:28 GMT 51.252430 20.824280 22,150 186 366 2048
2023-01-22 20:11:25 GMT 51.263077 20.825920 22,025 186 366 1984
2023-01-22 20:11:22 GMT 51.263077 20.825920 21,975 186 366 1920
2023-01-22 20:11:19 GMT 51.270996 20.827257 21,575 186 366 2112
2023-01-22 20:11:16 GMT 51.270996 20.827257 21,775 186 366 2048
2023-01-22 20:11:13 GMT 51.283813 20.829336 21,650 186 366 2112
2023-01-22 20:11:10 GMT 51.283813 20.829336 21,550 186 366 2048
2023-01-22 20:11:07 GMT 51.287018 20.829855 21,500 186 366 2048
2023-01-22 20:11:04 GMT 51.292557 20.830820 21,400 186 366 2048
2023-01-22 20:11:01 GMT 51.297134 20.831564 21,225 186 366 1984
2023-01-22 20:10:58 GMT 51.304047 20.832676 21,175 186 366 1920
2023-01-22 20:10:55 GMT 51.312469 20.834011 21,075 186 366 1856
2023-01-22 20:10:52 GMT 51.312469 20.834011 20,975 186 365 1856
2023-01-22 20:10:49 GMT 51.317513 20.834885 20,850 186 365 1856
2023-01-22 20:10:46 GMT 51.322861 20.835794 20,500 186 363 1792
2023-01-22 20:10:42 GMT 51.334305 20.837650 20,675 186 364 1920
2023-01-22 20:10:39 GMT 51.334305 20.837650 20,525 186 364 1856
2023-01-22 20:10:36 GMT 51.340485 20.838615 20,450 186 363 1792
2023-01-22 20:10:33 GMT 51.345161 20.839386 20,325 186 363 1792
2023-01-22 20:10:30 GMT 51.348999 20.840025 20,300 186 362 1792
2023-01-22 20:10:27 GMT 51.355865 20.841139 20,200 186 362 1856
2023-01-22 20:10:23 GMT 51.366344 20.842896 20,000 186 361 1984
2023-01-22 20:10:17 GMT 51.377285 20.844650 19,875 186 360 1984
2023-01-22 20:10:14 GMT 51.377285 20.844650 19,750 186 360 1984
2023-01-22 20:10:11 GMT 51.380589 20.845261 19,650 187 360 1984
2023-01-22 20:10:08 GMT 51.385895 20.846111 19,525 187 360 1984
2023-01-22 20:10:05 GMT 51.391205 20.847015 19,500 187 360 1984
2023-01-22 20:10:02 GMT 51.396149 20.847820 19,375 187 359 1984
2023-01-22 20:09:59 GMT 51.408646 20.849897 19,275 186 358 1984
2023-01-22 20:09:55 GMT 51.408646 20.849897 19,125 186 357 2048
2023-01-22 20:09:52 GMT 51.413773 20.850788 19,000 186 357 2048
2023-01-22 20:09:49 GMT 51.417892 20.851458 18,925 186 357 2048
2023-01-22 20:09:46 GMT 51.421967 20.852125 18,825 186 356 1920
2023-01-22 20:09:43 GMT 51.431797 20.853806 18,725 186 356 1792
2023-01-22 20:09:40 GMT 51.431797 20.853806 18,650 186 355 1728
2023-01-22 20:09:37 GMT 51.435570 20.854416 18,625 186 355 1728
2023-01-22 20:09:34 GMT 51.443062 20.855637 18,550 186 354 1728
2023-01-22 20:09:31 GMT 51.446320 20.856171 18,350 187 352 2048
2023-01-22 20:09:28 GMT 51.458519 20.858231 18,300 187 352 2112
2023-01-22 20:09:25 GMT 51.458519 20.858231 18,175 186 352 2048
2023-01-22 20:09:22 GMT 51.460102 20.858459 18,050 186 351 1920
2023-01-22 20:09:19 GMT 51.471268 20.860291 18,000 186 350 1472
2023-01-22 20:09:16 GMT 51.471268 20.860291 17,925 186 349 1536
2023-01-22 20:09:13 GMT 51.476067 20.861130 17,850 186 348 1792
2023-01-22 20:09:10 GMT 51.479782 20.861700 17,800 186 347 1984
2023-01-22 20:09:07 GMT 51.490452 20.863495 17,625 186 346 2048
2023-01-22 20:09:04 GMT 51.496040 20.864410 17,525 186 346 2112
2023-01-22 20:09:01 GMT 51.496040 20.864410 17,450 186 346 2112
2023-01-22 20:08:57 GMT 51.500973 20.865250 17,325 186 345 2304
2023-01-22 20:08:53 GMT 51.508095 20.866470 17,150 186 345 2240
2023-01-22 20:08:49 GMT 51.515121 20.867640 17,000 186 345 1984
2023-01-22 20:08:45 GMT 51.521736 20.868759 16,850 187 343 1792
2023-01-22 20:08:42 GMT 51.525238 20.869272 16,800 187 342 1856
2023-01-22 20:08:38 GMT 51.532013 20.870461 16,525 186 341 2112
2023-01-22 20:08:35 GMT 51.537186 20.871277 16,525 186 341 2112
2023-01-22 20:08:32 GMT 51.544739 20.872540 16,450 186 340 2048
2023-01-22 20:08:29 GMT 51.544739 20.872540 16,100 186 338 2176
2023-01-22 20:08:26 GMT 51.554398 20.874172 16,025 186 336 2048
2023-01-22 20:08:23 GMT 51.554398 20.874172 16,075 186 338 2176
2023-01-22 20:08:20 GMT 51.560486 20.875212 16,025 186 338 2176
2023-01-22 20:08:16 GMT 51.568241 20.876465 15,825 186 336 2048
2023-01-22 20:08:13 GMT 51.572296 20.877142 15,750 186 336 2048
2023-01-22 20:08:10 GMT 51.575363 20.877686 15,650 186 336 1984
2023-01-22 20:08:07 GMT 51.580811 20.878525 15,575 186 335 1920
2023-01-22 20:08:02 GMT 51.587746 20.879745 15,350 187 333 2304
2023-01-22 20:07:59 GMT 51.592171 20.880432 15,325 186 333 2432
2023-01-22 20:07:55 GMT 51.599384 20.881653 15,100 186 333 2560
2023-01-22 20:07:52 GMT 51.601994 20.882111 15,000 186 333 2496
2023-01-22 20:07:49 GMT 51.607067 20.882950 14,900 187 333 2496
2023-01-22 20:07:46 GMT 51.611664 20.883675 14,800 187 333 2496
2023-01-22 20:07:43 GMT 51.616425 20.884476 14,650 187 333 2560
2023-01-22 20:07:40 GMT 51.621170 20.885239 14,525 187 333 2560
2023-01-22 20:07:37 GMT 51.626385 20.886154 14,350 187 333 2496
2023-01-22 20:07:34 GMT 51.630669 20.886841 14,225 187 333 2432
2023-01-22 20:07:31 GMT 51.634644 20.887533 14,125 187 333 2368
2023-01-22 20:07:28 GMT 51.643097 20.888977 13,950 187 332 2368
2023-01-22 20:07:25 GMT 51.643097 20.888977 13,950 187 332 2432
2023-01-22 20:07:22 GMT 51.648880 20.889982 13,750 187 332 2496
2023-01-22 20:07:19 GMT 51.653641 20.890726 13,175 186 332 2496
2023-01-22 20:07:16 GMT 51.657761 20.891418 13,525 186 332 2432
2023-01-22 20:07:13 GMT 51.662510 20.892181 13,375 186 332 2368
2023-01-22 20:07:10 GMT 51.667099 20.892954 13,225 186 331 2368
2023-01-22 20:07:07 GMT 51.672272 20.893843 13,125 186 331 2368
2023-01-22 20:07:04 GMT 51.677170 20.894661 12,950 186 331 2368
2023-01-22 20:07:01 GMT 51.681885 20.895475 12,900 186 331 2368
2023-01-22 20:06:58 GMT 51.685089 20.895996 12,825 186 331 2304
2023-01-22 20:06:54 GMT 51.696945 20.897926 12,625 186 330 2240
2023-01-22 20:06:51 GMT 51.696945 20.897926 12,500 186 330 2176
2023-01-22 20:06:48 GMT 51.700745 20.898594 12,375 186 329 2240
2023-01-22 20:06:45 GMT 51.705002 20.899261 12,325 186 329 2240
2023-01-22 20:06:42 GMT 51.712280 20.900450 12,175 186 328 2112
2023-01-22 20:06:39 GMT 51.713623 20.900726 12,075 186 327 1792
2023-01-22 20:06:36 GMT 51.718460 20.901489 12,000 186 327 1728
2023-01-22 20:06:33 GMT 51.728806 20.903271 11,625 186 325 1792
2023-01-22 20:06:30 GMT 51.728806 20.903271 11,825 187 324 1856
2023-01-22 20:06:25 GMT 51.734940 20.904310 11,700 187 323 1984
2023-01-22 20:06:20 GMT 51.743820 20.905794 11,500 187 321 1984
2023-01-22 20:06:16 GMT 51.748119 20.906525 11,375 187 320 1792
2023-01-22 20:06:13 GMT 51.759151 20.908356 11,275 186 318 1792
2023-01-22 20:06:10 GMT 51.759151 20.908356 11,175 186 317 2304
2023-01-22 20:06:07 GMT 51.761307 20.908764 11,125 186 317 2368
2023-01-22 20:06:04 GMT 51.765110 20.909424 11,025 186 317 2752
2023-01-22 20:06:01 GMT 51.773724 20.910797 10,675 186 318 2432
2023-01-22 20:05:58 GMT 51.780487 20.911957 10,675 186 318 2432
2023-01-22 20:05:55 GMT 51.780487 20.911957 10,550 186 319 2368
2023-01-22 20:05:52 GMT 51.784012 20.912476 10,450 186 319 2368
2023-01-22 20:05:48 GMT 51.789276 20.913366 10,275 186 319 2304
2023-01-22 20:05:45 GMT 51.794254 20.914230 10,125 186 319 2304
2023-01-22 20:05:42 GMT 51.804867 20.915985 9,900 186 319 2496
2023-01-22 20:05:39 GMT 51.809235 20.916706 9,875 186 319 2560
2023-01-22 20:05:35 GMT 51.809235 20.916706 9,775 187 319 2816
2023-01-22 20:05:32 GMT 51.813538 20.917450 9,600 187 321 2944
2023-01-22 20:05:29 GMT 51.817932 20.918192 9,425 187 321 2560
2023-01-22 20:05:25 GMT 51.823105 20.919083 9,300 187 322 2304
2023-01-22 20:05:22 GMT 51.829075 20.920105 9,200 187 321 1920
2023-01-22 20:05:17 GMT 51.834660 20.921021 9,075 186 320 1472
2023-01-22 20:05:14 GMT 51.839222 20.921783 9,025 186 318 1600
2023-01-22 20:05:10 GMT 51.849743 20.923538 8,425 187 314 2240
2023-01-22 20:05:07 GMT 51.854259 20.924301 8,425 187 314 2240
2023-01-22 20:05:04 GMT 51.854259 20.924301 8,650 186 316 2112
2023-01-22 20:05:00 GMT 51.859055 20.925064 8,550 186 315 2176
2023-01-22 20:04:57 GMT 51.864407 20.925980 8,400 187 314 2304
2023-01-22 20:04:54 GMT 51.868317 20.926590 8,275 186 314 2432
2023-01-22 20:04:51 GMT 51.873390 20.927429 8,150 186 313 2432
2023-01-22 20:04:47 GMT 51.879181 20.928434 7,825 187 313 1984
2023-01-22 20:04:44 GMT 51.883347 20.929104 7,900 187 312 1984
2023-01-22 20:04:41 GMT 51.887634 20.929871 7,800 187 311 2304
2023-01-22 20:04:37 GMT 51.892944 20.930786 7,600 187 310 2304
2023-01-22 20:04:34 GMT 51.897644 20.931623 7,525 186 310 2304
2023-01-22 20:04:29 GMT 51.912735 20.934143 7,200 186 309 2496
2023-01-22 20:04:24 GMT 51.912735 20.934143 7,075 186 309 2496
2023-01-22 20:04:19 GMT 51.919434 20.935310 6,900 186 308 2432
2023-01-22 20:04:14 GMT 51.925369 20.936279 6,725 186 308 2240
2023-01-22 20:04:11 GMT 51.931732 20.937347 6,575 186 306 2048
2023-01-22 20:04:08 GMT 51.934158 20.937729 6,525 186 306 2112
2023-01-22 20:04:03 GMT 51.941574 20.938950 6,300 187 304 2560
2023-01-22 20:03:58 GMT 51.948166 20.940094 6,075 187 304 2688
2023-01-22 20:03:53 GMT 51.955322 20.941275 5,875 187 304 2304
2023-01-22 20:03:48 GMT 51.962448 20.942535 5,700 187 302 1856
2023-01-22 20:03:43 GMT 51.969681 20.943756 5,525 187 300 1792
2023-01-22 20:03:40 GMT 51.973526 20.944443 5,425 187 298 1664
2023-01-22 20:03:37 GMT 51.976830 20.944963 5,400 186 297 1408
2023-01-22 20:03:32 GMT 51.983505 20.946121 5,300 187 292 960
2023-01-22 20:03:28 GMT 51.990471 20.947317 5,225 186 287 1152
2023-01-22 20:03:25 GMT 51.995178 20.948105 5,150 187 284 1216
2023-01-22 20:03:22 GMT 51.997147 20.948486 5,125 187 281 1152
2023-01-22 20:03:19 GMT 52.002014 20.949280 5,050 186 278 960
2023-01-22 20:03:16 GMT 52.003693 20.949554 5,025 187 276 768
2023-01-22 20:03:13 GMT 52.013653 20.951321 4,975 187 269 832
2023-01-22 20:03:10 GMT 52.013653 20.951321 4,925 187 265 1408
2023-01-22 20:03:06 GMT 52.018169 20.952026 4,800 186 262 2304
2023-01-22 20:03:02 GMT 52.023239 20.952911 4,625 186 261 2688
2023-01-22 20:02:59 GMT 52.025616 20.953281 4,550 186 261 2624
2023-01-22 20:02:55 GMT 52.030426 20.954056 4,250 186 260 2496
2023-01-22 20:02:52 GMT 52.035095 20.954819 4,200 186 260 2432
2023-01-22 20:02:49 GMT 52.037842 20.955200 4,125 185 259 2368
2023-01-22 20:02:46 GMT 52.042969 20.955887 3,950 185 257 2368
2023-01-22 20:02:42 GMT 52.046219 20.956268 3,600 188 257 2432
2023-01-22 20:02:38 GMT 52.050339 20.956726 3,675 185 256 2496
2023-01-22 20:02:35 GMT 52.054230 20.957413 3,400 191 257 2304
2023-01-22 20:02:32 GMT 52.058250 20.958462 3,225 199 258 2112
2023-01-22 20:02:29 GMT 52.061604 20.959795 3,300 196 257 2176
2023-01-22 20:02:25 GMT 52.066025 20.962070 3,175 202 257 1856
2023-01-22 20:02:21 GMT 52.069935 20.964817 3,025 210 254 1088
2023-01-22 20:02:18 GMT 52.073181 20.967636 3,000 210 254 1088
2023-01-22 20:02:14 GMT 52.078171 20.972443 2,925 213 247 1280
2023-01-22 20:02:09 GMT 52.082874 20.977610 2,800 216 242 1856
2023-01-22 20:02:04 GMT 52.087646 20.983276 2,575 217 237 2112
2023-01-22 20:02:01 GMT 52.089348 20.985298 2,550 217 237 2112
2023-01-22 20:01:58 GMT 52.092133 20.988770 2,325 219 233 1600
2023-01-22 20:01:54 GMT 52.095215 20.992676 2,350 219 234 1664
2023-01-22 20:01:51 GMT 52.097633 20.995893 2,250 218 231 1344
2023-01-22 20:01:48 GMT 52.100613 20.999426 2,200 213 224 896
2023-01-22 20:01:45 GMT 52.103989 21.002731 2,125 176 198 1344
2023-01-22 20:01:41 GMT 52.106712 21.004683 2,075 195 209 1280
2023-01-22 20:01:38 GMT 52.109409 21.006016 2,050 193 207 1408
2023-01-22 20:01:34 GMT 52.113556 21.007004 1,825 176 198 1344
2023-01-22 20:01:31 GMT 52.116486 21.006927 1,875 173 196 1216
2023-01-22 20:01:27 GMT 52.119370 21.006012 1,825 163 188 1088
2023-01-22 20:01:24 GMT 52.122253 21.004410 1,750 156 182 1600
2023-01-22 20:01:21 GMT 52.124405 21.002884 1,675 153 180 2176
2023-01-22 20:01:17 GMT 52.129986 20.998091 1,375 152 181 2304
2023-01-22 20:01:14 GMT 52.129986 20.998091 1,350 151 180 2688
2023-01-22 20:01:08 GMT 52.133972 20.994644 950 152 180 2304
2023-01-22 20:01:03 GMT 52.137680 20.991440 975 152 179 2432
2023-01-22 20:01:00 GMT 52.139648 20.989761 825 152 180 2368
2023-01-22 20:00:55 GMT 52.144093 20.985928 600 152 178 2048
2023-01-22 20:00:51 GMT 52.147163 20.983259 450 152 177 2176
2023-01-22 20:00:47 GMT 52.150040 20.980759 300 151 178 2176
We lost coverage of the aircraft here for a total of 6 minutes
2023-01-22 19:55:00 GMT 52.176052 20.962124 0 334 17
2023-01-22 19:54:51 GMT 52.175400 20.962700 0 334 15
2023-01-22 19:54:40 GMT 52.174805 20.963192 0 331 13
2023-01-22 19:54:37 GMT 52.174679 20.963327 0 326 13
2023-01-22 19:54:26 GMT 52.174370 20.964031 0 258 10
2023-01-22 19:54:16 GMT 52.174572 20.964760 0 241 14
2023-01-22 19:54:00 GMT 52.175148 20.966015 0 233 9
2023-01-22 19:53:56 GMT 52.175228 20.966187 0 239 8
2023-01-22 19:53:39 GMT 52.175674 20.967388 0 239 15
2023-01-22 19:53:28 GMT 52.176041 20.968380 0 239 12

Making use of Plane Finder data

You are free to use the raw flight data, aircraft information and images provided in this report for your own purposes provided the data is correctly attributed to Plane Finder. We ask that you please credit Plane Finder and link to planefinder.net in close proximity to the content.

Optionally one of the following logos (no smaller then 150x24px) can be used and must link to planefinder.net

Embedding the Plane Finder map

You are welcome to embed the Plane Finder playback map on your website to offer visitors a more interactive experience. We suggest using the following HTML code:

<iframe src="//planefinder.net/data/report/FZ1830-A6-FMH-7700-squawk-2023-01-22/map" width="800" height="600" seamless="seamless"></iframe>

Where our data comes from

Plane Finder has a global network of data feeds and antenna radars that receive data broadcast directly from aircraft. The primary technologies used are ADS-B and MLAT. We also show feeds from the FAA and a FLARM glider feed.

Click here to find out more about the Plane Finder network.

How we collect our data